<?xml version='1.0' encoding='UTF-8'?><gpx version="1.1" creator="JPX - https://github.com/jenetics/jpx" xmlns="http://www.topografix.com/GPX/1/1"><trk><trkseg><trkpt lat="44.7074893" lon="12.2253866"><ele>0.9999999999999999</ele><time>2026-04-18T11:49:58.99Z</time></trkpt><trkpt lat="44.7075253" lon="12.2254738"><ele>1.0</ele><time>2026-04-18T11:50:27.99Z</time></trkpt><trkpt lat="44.7075168" lon="12.2255622"><ele>1.0</ele><time>2026-04-18T11:50:36.989Z</time></trkpt><trkpt lat="44.7075036" lon="12.2256726"><ele>1.0</ele><time>2026-04-18T11:52:00.989Z</time></trkpt><trkpt lat="44.7075042" lon="12.2258003"><ele>0.9999999999999999</ele><time>2026-04-18T11:52:02.989Z</time></trkpt><trkpt lat="44.7075127" lon="12.2259648"><ele>1.0</ele><time>2026-04-18T11:52:04.99Z</time></trkpt><trkpt lat="44.7075391" lon="12.2260949"><ele>0.9999999999999999</ele><time>2026-04-18T11:52:06.989Z</time></trkpt><trkpt lat="44.7076314" lon="12.226147"><ele>1.0</ele><time>2026-04-18T11:52:08.989Z</time></trkpt><trkpt lat="44.707725" lon="12.2261534"><ele>1.0</ele><time>2026-04-18T11:52:10.989Z</time></trkpt><trkpt lat="44.707788" lon="12.2261133"><ele>1.0</ele><time>2026-04-18T11:52:20.989Z</time></trkpt><trkpt lat="44.7078237" lon="12.2259689"><ele>0.9999999999999999</ele><time>2026-04-18T11:52:22.989Z</time></trkpt><trkpt lat="44.7078281" lon="12.2258684"><ele>1.0</ele><time>2026-04-18T11:52:23.989Z</time></trkpt><trkpt lat="44.7078292" lon="12.2257384"><ele>1.0</ele><time>2026-04-18T11:52:24.989Z</time></trkpt><trkpt lat="44.7078355" lon="12.2255878"><ele>1.0</ele><time>2026-04-18T11:52:25.988Z</time></trkpt><trkpt lat="44.7078437" lon="12.2254194"><ele>1.0</ele><time>2026-04-18T11:52:26.989Z</time></trkpt><trkpt lat="44.7078543" lon="12.2252328"><ele>1.0</ele><time>2026-04-18T11:52:27.989Z</time></trkpt><trkpt lat="44.7078634" lon="12.2250353"><ele>1.0</ele><time>2026-04-18T11:52:28.989Z</time></trkpt><trkpt lat="44.7078721" lon="12.2248312"><ele>1.0</ele><time>2026-04-18T11:52:29.989Z</time></trkpt><trkpt lat="44.7078805" lon="12.2246202"><ele>1.0</ele><time>2026-04-18T11:52:30.988Z</time></trkpt><trkpt lat="44.7078896" lon="12.2244063"><ele>1.0</ele><time>2026-04-18T11:52:31.989Z</time></trkpt><trkpt lat="44.7078968" lon="12.2241838"><ele>1.0</ele><time>2026-04-18T11:52:32.989Z</time></trkpt><trkpt lat="44.7079053" lon="12.2239587"><ele>1.0</ele><time>2026-04-18T11:52:33.988Z</time></trkpt><trkpt lat="44.707911" lon="12.2237522"><ele>1.0</ele><time>2026-04-18T11:52:34.989Z</time></trkpt><trkpt lat="44.7079118" lon="12.2235592"><ele>1.0</ele><time>2026-04-18T11:52:35.989Z</time></trkpt><trkpt lat="44.7079243" lon="12.2233863"><ele>1.0</ele><time>2026-04-18T11:52:36.989Z</time></trkpt><trkpt lat="44.7079475" lon="12.2232333"><ele>1.0</ele><time>2026-04-18T11:52:37.989Z</time></trkpt><trkpt lat="44.7079831" lon="12.2230806"><ele>1.0</ele><time>2026-04-18T11:52:38.99Z</time></trkpt><trkpt lat="44.7079503" lon="12.2227936"><ele>1.0</ele><time>2026-04-18T11:52:39.989Z</time></trkpt><trkpt lat="44.70796" lon="12.2225956"><ele>1.25</ele><time>2026-04-18T11:52:40.99Z</time></trkpt><trkpt lat="44.7079749" lon="12.2224084"><ele>1.5</ele><time>2026-04-18T11:52:41.99Z</time></trkpt><trkpt lat="44.707991" lon="12.2222381"><ele>1.75</ele><time>2026-04-18T11:52:42.989Z</time></trkpt><trkpt lat="44.7080079" lon="12.22208"><ele>2.0</ele><time>2026-04-18T11:52:43.989Z</time></trkpt><trkpt lat="44.7080247" lon="12.2219444"><ele>2.2</ele><time>2026-04-18T11:52:44.989Z</time></trkpt><trkpt lat="44.7080337" lon="12.2218346"><ele>2.4000000000000004</ele><time>2026-04-18T11:52:45.99Z</time></trkpt><trkpt lat="44.7080502" lon="12.2217152"><ele>2.5999999999999996</ele><time>2026-04-18T11:52:47.989Z</time></trkpt><trkpt lat="44.7081001" lon="12.2215878"><ele>2.8</ele><time>2026-04-18T11:52:52.989Z</time></trkpt><trkpt lat="44.7081928" lon="12.2214725"><ele>3.0</ele><time>2026-04-18T11:52:54.989Z</time></trkpt><trkpt lat="44.7082299" lon="12.2213663"><ele>2.6</ele><time>2026-04-18T11:52:56.99Z</time></trkpt><trkpt lat="44.7082316" lon="12.221245"><ele>2.1999999999999997</ele><time>2026-04-18T11:52:58.989Z</time></trkpt><trkpt lat="44.7082253" lon="12.2211327"><ele>1.8</ele><time>2026-04-18T11:52:59.988Z</time></trkpt><trkpt lat="44.7082134" lon="12.2209837"><ele>1.4</ele><time>2026-04-18T11:53:00.989Z</time></trkpt><trkpt lat="44.7082034" lon="12.2208254"><ele>1.0</ele><time>2026-04-18T11:53:01.988Z</time></trkpt><trkpt lat="44.7081897" lon="12.2206568"><ele>0.75</ele><time>2026-04-18T11:53:02.988Z</time></trkpt><trkpt lat="44.7081722" lon="12.2204798"><ele>0.5</ele><time>2026-04-18T11:53:03.989Z</time></trkpt><trkpt lat="44.7081542" lon="12.2202934"><ele>0.25</ele><time>2026-04-18T11:53:04.988Z</time></trkpt><trkpt lat="44.7081354" lon="12.2200971"><ele>0.0</ele><time>2026-04-18T11:53:05.988Z</time></trkpt><trkpt lat="44.7081164" lon="12.2198891"><ele>0.3333333333333333</ele><time>2026-04-18T11:53:06.988Z</time></trkpt><trkpt lat="44.708097" lon="12.2196768"><ele>0.6666666666666666</ele><time>2026-04-18T11:53:07.988Z</time></trkpt><trkpt lat="44.7080778" lon="12.2194629"><ele>1.0</ele><time>2026-04-18T11:53:08.988Z</time></trkpt><trkpt lat="44.70806" lon="12.2192615"><ele>1.0</ele><time>2026-04-18T11:53:09.988Z</time></trkpt><trkpt lat="44.7080417" lon="12.2190851"><ele>1.0</ele><time>2026-04-18T11:53:10.989Z</time></trkpt><trkpt lat="44.7080133" lon="12.2189015"><ele>1.0</ele><time>2026-04-18T11:53:11.989Z</time></trkpt><trkpt lat="44.7079778" lon="12.2187172"><ele>1.0</ele><time>2026-04-18T11:53:12.989Z</time></trkpt><trkpt lat="44.7079357" lon="12.2185237"><ele>1.0</ele><time>2026-04-18T11:53:13.989Z</time></trkpt><trkpt lat="44.7078957" lon="12.2183259"><ele>1.0</ele><time>2026-04-18T11:53:14.989Z</time></trkpt><trkpt lat="44.7078632" lon="12.2181579"><ele>1.0</ele><time>2026-04-18T11:53:15.989Z</time></trkpt><trkpt lat="44.7078301" lon="12.2180048"><ele>1.0</ele><time>2026-04-18T11:53:16.989Z</time></trkpt><trkpt lat="44.7078043" lon="12.2178677"><ele>0.9999999999999999</ele><time>2026-04-18T11:53:17.989Z</time></trkpt><trkpt lat="44.7077805" lon="12.2177526"><ele>1.0</ele><time>2026-04-18T11:53:18.989Z</time></trkpt><trkpt lat="44.7077595" lon="12.2176598"><ele>1.0</ele><time>2026-04-18T11:53:19.989Z</time></trkpt><trkpt lat="44.7076851" lon="12.2175363"><ele>1.0</ele><time>2026-04-18T11:53:21.989Z</time></trkpt><trkpt lat="44.7076384" lon="12.2174653"><ele>0.9999999999999999</ele><time>2026-04-18T11:53:22.989Z</time></trkpt><trkpt lat="44.7076036" lon="12.2173625"><ele>1.0</ele><time>2026-04-18T11:53:23.988Z</time></trkpt><trkpt lat="44.7075756" lon="12.2172247"><ele>1.0</ele><time>2026-04-18T11:53:24.988Z</time></trkpt><trkpt lat="44.7075397" lon="12.2170441"><ele>1.0</ele><time>2026-04-18T11:53:25.989Z</time></trkpt><trkpt lat="44.7074944" lon="12.216841"><ele>1.0</ele><time>2026-04-18T11:53:26.988Z</time></trkpt><trkpt lat="44.7074535" lon="12.2166611"><ele>1.0</ele><time>2026-04-18T11:53:27.989Z</time></trkpt><trkpt lat="44.7074115" lon="12.2164772"><ele>1.5</ele><time>2026-04-18T11:53:28.988Z</time></trkpt><trkpt lat="44.7073609" lon="12.2163203"><ele>2.0</ele><time>2026-04-18T11:53:29.988Z</time></trkpt><trkpt lat="44.7072999" lon="12.2161807"><ele>2.5</ele><time>2026-04-18T11:53:30.989Z</time></trkpt><trkpt lat="44.7072289" lon="12.2160466"><ele>3.0</ele><time>2026-04-18T11:53:31.989Z</time></trkpt><trkpt lat="44.7071721" lon="12.2159397"><ele>3.0</ele><time>2026-04-18T11:53:32.989Z</time></trkpt><trkpt lat="44.707121" lon="12.2158499"><ele>3.0</ele><time>2026-04-18T11:53:33.99Z</time></trkpt><trkpt lat="44.7070138" lon="12.2157882"><ele>3.0</ele><time>2026-04-18T11:53:35.989Z</time></trkpt><trkpt lat="44.7069496" lon="12.2158127"><ele>3.0</ele><time>2026-04-18T11:53:36.989Z</time></trkpt><trkpt lat="44.7068742" lon="12.2158689"><ele>3.0</ele><time>2026-04-18T11:53:37.989Z</time></trkpt><trkpt lat="44.7067724" lon="12.2159491"><ele>2.0</ele><time>2026-04-18T11:53:38.989Z</time></trkpt><trkpt lat="44.7066458" lon="12.2160395"><ele>1.0</ele><time>2026-04-18T11:53:39.989Z</time></trkpt><trkpt lat="44.706516" lon="12.216129"><ele>0.0</ele><time>2026-04-18T11:53:40.988Z</time></trkpt><trkpt lat="44.7063736" lon="12.2162143"><ele>-1.0</ele><time>2026-04-18T11:53:41.989Z</time></trkpt><trkpt lat="44.7062215" lon="12.2162857"><ele>-2.0</ele><time>2026-04-18T11:53:42.988Z</time></trkpt><trkpt lat="44.7060629" lon="12.2163472"><ele>-3.0</ele><time>2026-04-18T11:53:43.989Z</time></trkpt><trkpt lat="44.7058997" lon="12.2164047"><ele>-4.0</ele><time>2026-04-18T11:53:44.989Z</time></trkpt><trkpt lat="44.705734" lon="12.2164635"><ele>-3.6666666666666665</ele><time>2026-04-18T11:53:45.989Z</time></trkpt><trkpt lat="44.7055646" lon="12.2165247"><ele>-3.333333333333333</ele><time>2026-04-18T11:53:46.989Z</time></trkpt><trkpt lat="44.7053946" lon="12.2165858"><ele>-3.0</ele><time>2026-04-18T11:53:47.989Z</time></trkpt><trkpt lat="44.7052241" lon="12.2166449"><ele>-3.0</ele><time>2026-04-18T11:53:48.989Z</time></trkpt><trkpt lat="44.7050541" lon="12.2167072"><ele>-3.0</ele><time>2026-04-18T11:53:49.989Z</time></trkpt><trkpt lat="44.7048828" lon="12.2167689"><ele>-3.0</ele><time>2026-04-18T11:53:50.989Z</time></trkpt><trkpt lat="44.7046977" lon="12.2168359"><ele>-3.0</ele><time>2026-04-18T11:53:51.989Z</time></trkpt><trkpt lat="44.704502" lon="12.2169077"><ele>-3.0</ele><time>2026-04-18T11:53:52.988Z</time></trkpt><trkpt lat="44.7043154" lon="12.2169745"><ele>-3.0</ele><time>2026-04-18T11:53:53.989Z</time></trkpt><trkpt lat="44.704145" lon="12.2170355"><ele>-2.3333333333333335</ele><time>2026-04-18T11:53:54.989Z</time></trkpt><trkpt lat="44.7039856" lon="12.2170935"><ele>-1.6666666666666665</ele><time>2026-04-18T11:53:55.989Z</time></trkpt><trkpt lat="44.703832" lon="12.2171503"><ele>-1.0</ele><time>2026-04-18T11:53:56.989Z</time></trkpt><trkpt lat="44.703682" lon="12.2172051"><ele>-1.25</ele><time>2026-04-18T11:53:57.989Z</time></trkpt><trkpt lat="44.7035424" lon="12.2172571"><ele>-1.5</ele><time>2026-04-18T11:53:58.99Z</time></trkpt><trkpt lat="44.7034177" lon="12.2173018"><ele>-1.75</ele><time>2026-04-18T11:53:59.99Z</time></trkpt><trkpt lat="44.7033124" lon="12.2173347"><ele>-2.0</ele><time>2026-04-18T11:54:00.989Z</time></trkpt><trkpt lat="44.7032304" lon="12.2173487"><ele>-1.9999999999999998</ele><time>2026-04-18T11:54:01.989Z</time></trkpt><trkpt lat="44.7031607" lon="12.2173384"><ele>-2.0</ele><time>2026-04-18T11:54:02.989Z</time></trkpt><trkpt lat="44.7030893" lon="12.2173056"><ele>-2.0</ele><time>2026-04-18T11:54:03.989Z</time></trkpt><trkpt lat="44.7030055" lon="12.2172777"><ele>-2.0</ele><time>2026-04-18T11:54:04.989Z</time></trkpt><trkpt lat="44.7029078" lon="12.2172783"><ele>-1.9999999999999998</ele><time>2026-04-18T11:54:05.989Z</time></trkpt><trkpt lat="44.7028007" lon="12.2172977"><ele>-2.0</ele><time>2026-04-18T11:54:06.989Z</time></trkpt><trkpt lat="44.7026859" lon="12.2173114"><ele>-2.25</ele><time>2026-04-18T11:54:07.989Z</time></trkpt><trkpt lat="44.7025632" lon="12.2173133"><ele>-2.5</ele><time>2026-04-18T11:54:08.988Z</time></trkpt><trkpt lat="44.7024328" lon="12.2173059"><ele>-2.75</ele><time>2026-04-18T11:54:09.988Z</time></trkpt><trkpt lat="44.7022986" lon="12.2172928"><ele>-3.0</ele><time>2026-04-18T11:54:10.988Z</time></trkpt><trkpt lat="44.7021628" lon="12.217284"><ele>-3.0</ele><time>2026-04-18T11:54:11.989Z</time></trkpt><trkpt lat="44.7020217" lon="12.217279"><ele>-3.0</ele><time>2026-04-18T11:54:12.989Z</time></trkpt><trkpt lat="44.701875" lon="12.2172695"><ele>-3.0</ele><time>2026-04-18T11:54:13.989Z</time></trkpt><trkpt lat="44.701724" lon="12.2172612"><ele>-3.0</ele><time>2026-04-18T11:54:14.988Z</time></trkpt><trkpt lat="44.7015661" lon="12.217258"><ele>-3.0</ele><time>2026-04-18T11:54:15.989Z</time></trkpt><trkpt lat="44.7013972" lon="12.2172555"><ele>-3.0</ele><time>2026-04-18T11:54:16.988Z</time></trkpt><trkpt lat="44.7012264" lon="12.2172522"><ele>-3.0</ele><time>2026-04-18T11:54:17.989Z</time></trkpt><trkpt lat="44.70107" lon="12.2172447"><ele>-3.0</ele><time>2026-04-18T11:54:18.989Z</time></trkpt><trkpt lat="44.7009087" lon="12.2172364"><ele>-3.0</ele><time>2026-04-18T11:54:19.989Z</time></trkpt><trkpt lat="44.700746" lon="12.2172319"><ele>-3.0</ele><time>2026-04-18T11:54:20.988Z</time></trkpt><trkpt lat="44.7005806" lon="12.2172364"><ele>-3.0</ele><time>2026-04-18T11:54:21.989Z</time></trkpt><trkpt lat="44.7004121" lon="12.2172555"><ele>-3.0</ele><time>2026-04-18T11:54:22.989Z</time></trkpt><trkpt lat="44.7002423" lon="12.2172834"><ele>-3.0</ele><time>2026-04-18T11:54:23.988Z</time></trkpt><trkpt lat="44.7000764" lon="12.2173092"><ele>-2.3333333333333335</ele><time>2026-04-18T11:54:24.989Z</time></trkpt><trkpt lat="44.6999017" lon="12.2173453"><ele>-1.6666666666666665</ele><time>2026-04-18T11:54:25.989Z</time></trkpt><trkpt lat="44.6997113" lon="12.2173837"><ele>-1.0</ele><time>2026-04-18T11:54:26.989Z</time></trkpt><trkpt lat="44.6995128" lon="12.217426"><ele>-1.3333333333333333</ele><time>2026-04-18T11:54:27.989Z</time></trkpt><trkpt lat="44.6993342" lon="12.2174686"><ele>-1.6666666666666665</ele><time>2026-04-18T11:54:28.989Z</time></trkpt><trkpt lat="44.6991532" lon="12.2175154"><ele>-2.0</ele><time>2026-04-18T11:54:29.989Z</time></trkpt><trkpt lat="44.6989764" lon="12.2175612"><ele>-2.0</ele><time>2026-04-18T11:54:30.989Z</time></trkpt><trkpt lat="44.6988037" lon="12.2176011"><ele>-2.0</ele><time>2026-04-18T11:54:31.989Z</time></trkpt><trkpt lat="44.6986325" lon="12.2176424"><ele>-2.0</ele><time>2026-04-18T11:54:32.989Z</time></trkpt><trkpt lat="44.6984697" lon="12.2176789"><ele>-1.75</ele><time>2026-04-18T11:54:33.989Z</time></trkpt><trkpt lat="44.6983255" lon="12.2177109"><ele>-1.5</ele><time>2026-04-18T11:54:34.989Z</time></trkpt><trkpt lat="44.6981823" lon="12.217733"><ele>-1.25</ele><time>2026-04-18T11:54:35.989Z</time></trkpt><trkpt lat="44.6980313" lon="12.2177236"><ele>-1.0</ele><time>2026-04-18T11:54:36.989Z</time></trkpt><trkpt lat="44.6978595" lon="12.2177035"><ele>-1.6666666666666665</ele><time>2026-04-18T11:54:37.988Z</time></trkpt><trkpt lat="44.6976925" lon="12.2176901"><ele>-2.3333333333333335</ele><time>2026-04-18T11:54:38.989Z</time></trkpt><trkpt lat="44.6975328" lon="12.2176749"><ele>-3.0</ele><time>2026-04-18T11:54:39.989Z</time></trkpt><trkpt lat="44.6973775" lon="12.2176571"><ele>-3.0</ele><time>2026-04-18T11:54:40.988Z</time></trkpt><trkpt lat="44.6972242" lon="12.2176371"><ele>-3.0</ele><time>2026-04-18T11:54:41.989Z</time></trkpt><trkpt lat="44.6970686" lon="12.2176162"><ele>-3.0</ele><time>2026-04-18T11:54:42.988Z</time></trkpt><trkpt lat="44.6969247" lon="12.2175972"><ele>-2.5</ele><time>2026-04-18T11:54:43.99Z</time></trkpt><trkpt lat="44.6967934" lon="12.2175814"><ele>-2.0</ele><time>2026-04-18T11:54:44.989Z</time></trkpt><trkpt lat="44.6966752" lon="12.217565"><ele>-1.5</ele><time>2026-04-18T11:54:45.989Z</time></trkpt><trkpt lat="44.6965617" lon="12.2175587"><ele>-1.0</ele><time>2026-04-18T11:54:46.989Z</time></trkpt><trkpt lat="44.6964692" lon="12.2175721"><ele>-0.9999999999999999</ele><time>2026-04-18T11:54:47.989Z</time></trkpt><trkpt lat="44.6963951" lon="12.2176052"><ele>-1.0</ele><time>2026-04-18T11:54:48.989Z</time></trkpt><trkpt lat="44.6962899" lon="12.2176179"><ele>-1.0</ele><time>2026-04-18T11:54:50.989Z</time></trkpt><trkpt lat="44.6962144" lon="12.2175288"><ele>-1.0</ele><time>2026-04-18T11:54:52.988Z</time></trkpt><trkpt lat="44.6961881" lon="12.2174424"><ele>-0.9999999999999999</ele><time>2026-04-18T11:54:54.989Z</time></trkpt><trkpt lat="44.6962025" lon="12.2173318"><ele>-1.0</ele><time>2026-04-18T11:54:57.988Z</time></trkpt><trkpt lat="44.6962339" lon="12.2172512"><ele>-1.1666666666666665</ele><time>2026-04-18T11:55:00.988Z</time></trkpt><trkpt lat="44.6963009" lon="12.217218"><ele>-1.3333333333333333</ele><time>2026-04-18T11:55:02.988Z</time></trkpt><trkpt lat="44.6963637" lon="12.2172261"><ele>-1.5</ele><time>2026-04-18T11:55:03.988Z</time></trkpt><trkpt lat="44.6964344" lon="12.2172408"><ele>-1.6666666666666665</ele><time>2026-04-18T11:55:04.988Z</time></trkpt><trkpt lat="44.6965113" lon="12.2172571"><ele>-1.8333333333333333</ele><time>2026-04-18T11:55:05.988Z</time></trkpt><trkpt lat="44.6965934" lon="12.2172684"><ele>-2.0</ele><time>2026-04-18T11:55:06.988Z</time></trkpt><trkpt lat="44.6966844" lon="12.2172802"><ele>-2.0</ele><time>2026-04-18T11:55:07.987Z</time></trkpt><trkpt lat="44.696788" lon="12.217287"><ele>-2.0</ele><time>2026-04-18T11:55:08.987Z</time></trkpt><trkpt lat="44.6969066" lon="12.217295"><ele>-2.0</ele><time>2026-04-18T11:55:09.988Z</time></trkpt><trkpt lat="44.6970306" lon="12.2173125"><ele>-2.0</ele><time>2026-04-18T11:55:10.988Z</time></trkpt><trkpt lat="44.6971553" lon="12.2173369"><ele>-2.25</ele><time>2026-04-18T11:55:11.988Z</time></trkpt><trkpt lat="44.6972862" lon="12.2173577"><ele>-2.5</ele><time>2026-04-18T11:55:12.987Z</time></trkpt><trkpt lat="44.6974216" lon="12.2173772"><ele>-2.75</ele><time>2026-04-18T11:55:13.988Z</time></trkpt><trkpt lat="44.6975627" lon="12.2173968"><ele>-3.0</ele><time>2026-04-18T11:55:14.987Z</time></trkpt><trkpt lat="44.6977079" lon="12.2174111"><ele>-2.3333333333333335</ele><time>2026-04-18T11:55:15.988Z</time></trkpt><trkpt lat="44.6978566" lon="12.2174177"><ele>-1.6666666666666665</ele><time>2026-04-18T11:55:16.987Z</time></trkpt><trkpt lat="44.6980082" lon="12.2174159"><ele>-1.0</ele><time>2026-04-18T11:55:17.988Z</time></trkpt><trkpt lat="44.6981606" lon="12.2173972"><ele>-1.0</ele><time>2026-04-18T11:55:18.988Z</time></trkpt><trkpt lat="44.6983134" lon="12.2173714"><ele>-1.0</ele><time>2026-04-18T11:55:19.987Z</time></trkpt><trkpt lat="44.698465" lon="12.2173422"><ele>-1.0</ele><time>2026-04-18T11:55:20.989Z</time></trkpt><trkpt lat="44.6986073" lon="12.2173131"><ele>-0.75</ele><time>2026-04-18T11:55:21.988Z</time></trkpt><trkpt lat="44.6987345" lon="12.2172845"><ele>-0.5</ele><time>2026-04-18T11:55:22.988Z</time></trkpt><trkpt lat="44.6988526" lon="12.2172557"><ele>-0.25</ele><time>2026-04-18T11:55:23.988Z</time></trkpt><trkpt lat="44.6989673" lon="12.2172309"><ele>0.0</ele><time>2026-04-18T11:55:24.988Z</time></trkpt><trkpt lat="44.6990754" lon="12.2172063"><ele>0.0</ele><time>2026-04-18T11:55:25.987Z</time></trkpt><trkpt lat="44.6991565" lon="12.2171872"><ele>0.0</ele><time>2026-04-18T11:55:26.988Z</time></trkpt><trkpt lat="44.6992218" lon="12.2171728"><ele>0.0</ele><time>2026-04-18T11:55:27.988Z</time></trkpt><trkpt lat="44.6992856" lon="12.2171443"><ele>0.0</ele><time>2026-04-18T11:55:29.988Z</time></trkpt><trkpt lat="44.69929" lon="12.2170456"><ele>0.0</ele><time>2026-04-18T11:55:31.988Z</time></trkpt><trkpt lat="44.6992435" lon="12.2168882"><ele>0.0</ele><time>2026-04-18T11:55:33.987Z</time></trkpt><trkpt lat="44.6992115" lon="12.2168009"><ele>0.0</ele><time>2026-04-18T11:55:34.988Z</time></trkpt><trkpt lat="44.6991816" lon="12.2167028"><ele>0.0</ele><time>2026-04-18T11:55:35.988Z</time></trkpt><trkpt lat="44.6991481" lon="12.2165934"><ele>0.0</ele><time>2026-04-18T11:55:36.988Z</time></trkpt><trkpt lat="44.6991158" lon="12.216476"><ele>0.0</ele><time>2026-04-18T11:55:37.988Z</time></trkpt><trkpt lat="44.6990784" lon="12.2163463"><ele>0.0</ele><time>2026-04-18T11:55:38.988Z</time></trkpt><trkpt lat="44.6990394" lon="12.216213"><ele>-0.4</ele><time>2026-04-18T11:55:39.988Z</time></trkpt><trkpt lat="44.6989993" lon="12.2160717"><ele>-0.8</ele><time>2026-04-18T11:55:40.988Z</time></trkpt><trkpt lat="44.6989587" lon="12.2159267"><ele>-1.2000000000000002</ele><time>2026-04-18T11:55:41.988Z</time></trkpt><trkpt lat="44.6989162" lon="12.2157847"><ele>-1.6</ele><time>2026-04-18T11:55:42.989Z</time></trkpt><trkpt lat="44.6988758" lon="12.2156405"><ele>-2.0</ele><time>2026-04-18T11:55:43.988Z</time></trkpt><trkpt lat="44.6988358" lon="12.2155099"><ele>-2.2</ele><time>2026-04-18T11:55:44.988Z</time></trkpt><trkpt lat="44.698798" lon="12.2153852"><ele>-2.4000000000000004</ele><time>2026-04-18T11:55:45.987Z</time></trkpt><trkpt lat="44.6987647" lon="12.2152666"><ele>-2.5999999999999996</ele><time>2026-04-18T11:55:46.989Z</time></trkpt><trkpt lat="44.6987318" lon="12.2151564"><ele>-2.8</ele><time>2026-04-18T11:55:47.988Z</time></trkpt><trkpt lat="44.6986974" lon="12.2150399"><ele>-3.0</ele><time>2026-04-18T11:55:48.988Z</time></trkpt><trkpt lat="44.6986613" lon="12.2149151"><ele>-3.0</ele><time>2026-04-18T11:55:49.987Z</time></trkpt><trkpt lat="44.6986245" lon="12.2147866"><ele>-3.0</ele><time>2026-04-18T11:55:50.988Z</time></trkpt><trkpt lat="44.6985867" lon="12.2146609"><ele>-3.0</ele><time>2026-04-18T11:55:51.988Z</time></trkpt><trkpt lat="44.6985495" lon="12.2145353"><ele>-3.0</ele><time>2026-04-18T11:55:52.987Z</time></trkpt><trkpt lat="44.6985171" lon="12.2144255"><ele>-3.0</ele><time>2026-04-18T11:55:53.987Z</time></trkpt><trkpt lat="44.6984858" lon="12.2143148"><ele>-3.0</ele><time>2026-04-18T11:55:54.987Z</time></trkpt><trkpt lat="44.698452" lon="12.2142031"><ele>-3.0</ele><time>2026-04-18T11:55:55.988Z</time></trkpt><trkpt lat="44.6984169" lon="12.214083"><ele>-3.0</ele><time>2026-04-18T11:55:56.988Z</time></trkpt><trkpt lat="44.6983858" lon="12.2139767"><ele>-3.0</ele><time>2026-04-18T11:55:57.989Z</time></trkpt><trkpt lat="44.6983535" lon="12.2138661"><ele>-3.0</ele><time>2026-04-18T11:55:58.988Z</time></trkpt><trkpt lat="44.6983227" lon="12.2137567"><ele>-3.0</ele><time>2026-04-18T11:55:59.988Z</time></trkpt><trkpt lat="44.6982935" lon="12.2136516"><ele>-3.0</ele><time>2026-04-18T11:56:00.988Z</time></trkpt><trkpt lat="44.6982669" lon="12.2135591"><ele>-3.0</ele><time>2026-04-18T11:56:01.988Z</time></trkpt><trkpt lat="44.6982419" lon="12.2134753"><ele>-3.0</ele><time>2026-04-18T11:56:02.988Z</time></trkpt><trkpt lat="44.698211" lon="12.2133229"><ele>-3.0</ele><time>2026-04-18T11:56:04.988Z</time></trkpt><trkpt lat="44.6982393" lon="12.2131666"><ele>-3.0</ele><time>2026-04-18T11:56:06.988Z</time></trkpt><trkpt lat="44.6982765" lon="12.2130858"><ele>-3.0</ele><time>2026-04-18T11:56:07.988Z</time></trkpt><trkpt lat="44.6983235" lon="12.2129992"><ele>-2.8333333333333335</ele><time>2026-04-18T11:56:08.988Z</time></trkpt><trkpt lat="44.6983766" lon="12.2129011"><ele>-2.6666666666666665</ele><time>2026-04-18T11:56:09.988Z</time></trkpt><trkpt lat="44.6984275" lon="12.2128012"><ele>-2.5</ele><time>2026-04-18T11:56:10.987Z</time></trkpt><trkpt lat="44.6984763" lon="12.2127122"><ele>-2.333333333333333</ele><time>2026-04-18T11:56:11.988Z</time></trkpt><trkpt lat="44.6985175" lon="12.2126338"><ele>-2.1666666666666665</ele><time>2026-04-18T11:56:12.987Z</time></trkpt><trkpt lat="44.6985802" lon="12.2125121"><ele>-2.0</ele><time>2026-04-18T11:56:14.988Z</time></trkpt><trkpt lat="44.6986428" lon="12.2123864"><ele>-2.1666666666666665</ele><time>2026-04-18T11:56:16.988Z</time></trkpt><trkpt lat="44.6987146" lon="12.212241"><ele>-2.333333333333333</ele><time>2026-04-18T11:56:18.988Z</time></trkpt><trkpt lat="44.6987543" lon="12.2121632"><ele>-2.5</ele><time>2026-04-18T11:56:19.989Z</time></trkpt><trkpt lat="44.6987984" lon="12.2120773"><ele>-2.6666666666666665</ele><time>2026-04-18T11:56:20.988Z</time></trkpt><trkpt lat="44.6988463" lon="12.2119836"><ele>-2.8333333333333335</ele><time>2026-04-18T11:56:21.987Z</time></trkpt><trkpt lat="44.6988982" lon="12.2118805"><ele>-3.0</ele><time>2026-04-18T11:56:22.987Z</time></trkpt><trkpt lat="44.6989539" lon="12.2117711"><ele>-3.0</ele><time>2026-04-18T11:56:23.988Z</time></trkpt><trkpt lat="44.6990112" lon="12.2116571"><ele>-3.0</ele><time>2026-04-18T11:56:24.988Z</time></trkpt><trkpt lat="44.6990701" lon="12.2115419"><ele>-3.0</ele><time>2026-04-18T11:56:25.988Z</time></trkpt><trkpt lat="44.6991252" lon="12.2114385"><ele>-3.0</ele><time>2026-04-18T11:56:26.988Z</time></trkpt><trkpt lat="44.6991764" lon="12.2113443"><ele>-3.0</ele><time>2026-04-18T11:56:27.988Z</time></trkpt><trkpt lat="44.6992264" lon="12.2112493"><ele>-3.0</ele><time>2026-04-18T11:56:28.988Z</time></trkpt><trkpt lat="44.6992763" lon="12.2111516"><ele>-3.0</ele><time>2026-04-18T11:56:29.988Z</time></trkpt><trkpt lat="44.6993301" lon="12.2110473"><ele>-3.0</ele><time>2026-04-18T11:56:30.988Z</time></trkpt><trkpt lat="44.6993869" lon="12.2109362"><ele>-3.0</ele><time>2026-04-18T11:56:31.988Z</time></trkpt><trkpt lat="44.699443" lon="12.2108269"><ele>-3.0</ele><time>2026-04-18T11:56:32.988Z</time></trkpt><trkpt lat="44.6994954" lon="12.2107223"><ele>-3.0</ele><time>2026-04-18T11:56:33.988Z</time></trkpt><trkpt lat="44.6995438" lon="12.2106248"><ele>-3.0</ele><time>2026-04-18T11:56:34.988Z</time></trkpt><trkpt lat="44.6995945" lon="12.2105268"><ele>-3.0</ele><time>2026-04-18T11:56:35.988Z</time></trkpt><trkpt lat="44.6996453" lon="12.2104292"><ele>-3.0</ele><time>2026-04-18T11:56:36.988Z</time></trkpt><trkpt lat="44.6996887" lon="12.2103439"><ele>-3.0</ele><time>2026-04-18T11:56:37.988Z</time></trkpt><trkpt lat="44.6997289" lon="12.2102626"><ele>-3.0</ele><time>2026-04-18T11:56:38.988Z</time></trkpt><trkpt lat="44.699784" lon="12.2101474"><ele>-3.0</ele><time>2026-04-18T11:56:39.989Z</time></trkpt><trkpt lat="44.6998577" lon="12.2099962"><ele>-3.0</ele><time>2026-04-18T11:56:40.988Z</time></trkpt><trkpt lat="44.6999518" lon="12.2098167"><ele>-3.0</ele><time>2026-04-18T11:56:41.987Z</time></trkpt><trkpt lat="44.7000582" lon="12.2096068"><ele>-3.0</ele><time>2026-04-18T11:56:42.988Z</time></trkpt><trkpt lat="44.7001667" lon="12.2093861"><ele>-3.0</ele><time>2026-04-18T11:56:43.988Z</time></trkpt><trkpt lat="44.700278" lon="12.2091692"><ele>-3.0</ele><time>2026-04-18T11:56:44.989Z</time></trkpt><trkpt lat="44.7003921" lon="12.2089537"><ele>-3.0</ele><time>2026-04-18T11:56:45.987Z</time></trkpt><trkpt lat="44.7005056" lon="12.2087381"><ele>-3.0</ele><time>2026-04-18T11:56:46.988Z</time></trkpt><trkpt lat="44.7006179" lon="12.2085251"><ele>-3.0</ele><time>2026-04-18T11:56:47.988Z</time></trkpt><trkpt lat="44.7007314" lon="12.2083144"><ele>-3.333333333333333</ele><time>2026-04-18T11:56:48.988Z</time></trkpt><trkpt lat="44.700845" lon="12.2081045"><ele>-3.6666666666666665</ele><time>2026-04-18T11:56:49.988Z</time></trkpt><trkpt lat="44.7009548" lon="12.2078893"><ele>-4.0</ele><time>2026-04-18T11:56:50.988Z</time></trkpt><trkpt lat="44.7010581" lon="12.207664"><ele>-3.6666666666666665</ele><time>2026-04-18T11:56:51.988Z</time></trkpt><trkpt lat="44.701158" lon="12.2074373"><ele>-3.333333333333333</ele><time>2026-04-18T11:56:52.989Z</time></trkpt><trkpt lat="44.7012639" lon="12.2072175"><ele>-3.0</ele><time>2026-04-18T11:56:53.988Z</time></trkpt><trkpt lat="44.7013757" lon="12.2069947"><ele>-2.6666666666666665</ele><time>2026-04-18T11:56:54.988Z</time></trkpt><trkpt lat="44.7014895" lon="12.2067721"><ele>-2.333333333333333</ele><time>2026-04-18T11:56:55.987Z</time></trkpt><trkpt lat="44.7016064" lon="12.2065514"><ele>-2.0</ele><time>2026-04-18T11:56:56.988Z</time></trkpt><trkpt lat="44.7017241" lon="12.2063362"><ele>-2.0</ele><time>2026-04-18T11:56:57.989Z</time></trkpt><trkpt lat="44.7018347" lon="12.2061428"><ele>-2.0</ele><time>2026-04-18T11:56:58.988Z</time></trkpt><trkpt lat="44.7019461" lon="12.205979"><ele>-2.0</ele><time>2026-04-18T11:56:59.988Z</time></trkpt><trkpt lat="44.7020646" lon="12.2058381"><ele>-2.0</ele><time>2026-04-18T11:57:00.987Z</time></trkpt><trkpt lat="44.7021761" lon="12.2056908"><ele>-2.0</ele><time>2026-04-18T11:57:01.988Z</time></trkpt><trkpt lat="44.7022834" lon="12.2055005"><ele>-2.0</ele><time>2026-04-18T11:57:02.988Z</time></trkpt><trkpt lat="44.7024062" lon="12.2052706"><ele>-2.0</ele><time>2026-04-18T11:57:03.988Z</time></trkpt><trkpt lat="44.7025333" lon="12.205039"><ele>-2.0</ele><time>2026-04-18T11:57:04.987Z</time></trkpt><trkpt lat="44.7026511" lon="12.2048293"><ele>-2.0</ele><time>2026-04-18T11:57:05.988Z</time></trkpt><trkpt lat="44.7027605" lon="12.2046303"><ele>-2.0</ele><time>2026-04-18T11:57:06.988Z</time></trkpt><trkpt lat="44.702859" lon="12.20445"><ele>-2.0</ele><time>2026-04-18T11:57:07.987Z</time></trkpt><trkpt lat="44.7029569" lon="12.2042701"><ele>-2.0</ele><time>2026-04-18T11:57:08.989Z</time></trkpt><trkpt lat="44.7030509" lon="12.2041014"><ele>-2.25</ele><time>2026-04-18T11:57:09.988Z</time></trkpt><trkpt lat="44.7031364" lon="12.2039383"><ele>-2.5</ele><time>2026-04-18T11:57:10.988Z</time></trkpt><trkpt lat="44.7032182" lon="12.2037695"><ele>-2.75</ele><time>2026-04-18T11:57:11.988Z</time></trkpt><trkpt lat="44.703297" lon="12.2036124"><ele>-3.0</ele><time>2026-04-18T11:57:12.987Z</time></trkpt><trkpt lat="44.7033673" lon="12.2034744"><ele>-3.0</ele><time>2026-04-18T11:57:13.988Z</time></trkpt><trkpt lat="44.7034348" lon="12.2033472"><ele>-3.0</ele><time>2026-04-18T11:57:14.989Z</time></trkpt><trkpt lat="44.7035079" lon="12.2032176"><ele>-3.0</ele><time>2026-04-18T11:57:15.988Z</time></trkpt><trkpt lat="44.7035784" lon="12.203097"><ele>-3.0</ele><time>2026-04-18T11:57:16.988Z</time></trkpt><trkpt lat="44.7036413" lon="12.2029993"><ele>-3.0</ele><time>2026-04-18T11:57:17.988Z</time></trkpt><trkpt lat="44.7037077" lon="12.2029218"><ele>-3.0</ele><time>2026-04-18T11:57:18.988Z</time></trkpt><trkpt lat="44.7037843" lon="12.2028528"><ele>-3.0</ele><time>2026-04-18T11:57:19.988Z</time></trkpt><trkpt lat="44.7038773" lon="12.202791"><ele>-3.0</ele><time>2026-04-18T11:57:20.988Z</time></trkpt><trkpt lat="44.7039943" lon="12.20273"><ele>-3.0</ele><time>2026-04-18T11:57:21.987Z</time></trkpt><trkpt lat="44.7041344" lon="12.2026558"><ele>-3.0</ele><time>2026-04-18T11:57:22.988Z</time></trkpt><trkpt lat="44.7042664" lon="12.2025779"><ele>-3.0</ele><time>2026-04-18T11:57:23.987Z</time></trkpt><trkpt lat="44.7043855" lon="12.2025078"><ele>-3.0</ele><time>2026-04-18T11:57:24.988Z</time></trkpt><trkpt lat="44.7045045" lon="12.2024424"><ele>-3.0</ele><time>2026-04-18T11:57:25.989Z</time></trkpt><trkpt lat="44.7046133" lon="12.2023862"><ele>-3.0</ele><time>2026-04-18T11:57:26.988Z</time></trkpt><trkpt lat="44.7047089" lon="12.2023437"><ele>-3.0</ele><time>2026-04-18T11:57:27.988Z</time></trkpt><trkpt lat="44.7047912" lon="12.2022961"><ele>-3.0</ele><time>2026-04-18T11:57:28.988Z</time></trkpt><trkpt lat="44.7048605" lon="12.202235"><ele>-3.0</ele><time>2026-04-18T11:57:29.988Z</time></trkpt><trkpt lat="44.7049199" lon="12.2021659"><ele>-3.0</ele><time>2026-04-18T11:57:30.988Z</time></trkpt><trkpt lat="44.7049609" lon="12.2020863"><ele>-3.0</ele><time>2026-04-18T11:57:31.988Z</time></trkpt><trkpt lat="44.7049811" lon="12.2019873"><ele>-3.0</ele><time>2026-04-18T11:57:32.988Z</time></trkpt><trkpt lat="44.7049821" lon="12.2018692"><ele>-3.0</ele><time>2026-04-18T11:57:33.988Z</time></trkpt><trkpt lat="44.7049721" lon="12.2017464"><ele>-3.0</ele><time>2026-04-18T11:57:34.988Z</time></trkpt><trkpt lat="44.7049624" lon="12.2016385"><ele>-3.0</ele><time>2026-04-18T11:57:35.988Z</time></trkpt><trkpt lat="44.7049658" lon="12.2015033"><ele>-3.0</ele><time>2026-04-18T11:57:37.988Z</time></trkpt><trkpt lat="44.7050425" lon="12.201415"><ele>-3.0</ele><time>2026-04-18T11:57:39.988Z</time></trkpt><trkpt lat="44.7051371" lon="12.2013627"><ele>-3.333333333333333</ele><time>2026-04-18T11:57:40.988Z</time></trkpt><trkpt lat="44.7052739" lon="12.2012914"><ele>-3.6666666666666665</ele><time>2026-04-18T11:57:41.988Z</time></trkpt><trkpt lat="44.705421" lon="12.2012085"><ele>-4.0</ele><time>2026-04-18T11:57:42.988Z</time></trkpt><trkpt lat="44.7055779" lon="12.2011147"><ele>-4.0</ele><time>2026-04-18T11:57:43.988Z</time></trkpt><trkpt lat="44.7057504" lon="12.20102"><ele>-4.0</ele><time>2026-04-18T11:57:44.989Z</time></trkpt><trkpt lat="44.7059232" lon="12.2009275"><ele>-4.0</ele><time>2026-04-18T11:57:45.988Z</time></trkpt><trkpt lat="44.7060847" lon="12.2008348"><ele>-3.6666666666666665</ele><time>2026-04-18T11:57:46.987Z</time></trkpt><trkpt lat="44.7062356" lon="12.2007418"><ele>-3.333333333333333</ele><time>2026-04-18T11:57:47.988Z</time></trkpt><trkpt lat="44.7063862" lon="12.2006474"><ele>-3.0</ele><time>2026-04-18T11:57:48.987Z</time></trkpt><trkpt lat="44.7065389" lon="12.2005578"><ele>-3.0</ele><time>2026-04-18T11:57:49.987Z</time></trkpt><trkpt lat="44.7066944" lon="12.2004725"><ele>-3.0</ele><time>2026-04-18T11:57:50.988Z</time></trkpt><trkpt lat="44.7068491" lon="12.2003852"><ele>-3.0</ele><time>2026-04-18T11:57:51.988Z</time></trkpt><trkpt lat="44.7070056" lon="12.2002975"><ele>-3.333333333333333</ele><time>2026-04-18T11:57:52.989Z</time></trkpt><trkpt lat="44.7071624" lon="12.200213"><ele>-3.6666666666666665</ele><time>2026-04-18T11:57:53.988Z</time></trkpt><trkpt lat="44.7073215" lon="12.2001272"><ele>-4.0</ele><time>2026-04-18T11:57:54.988Z</time></trkpt><trkpt lat="44.7074835" lon="12.2000385"><ele>-4.0</ele><time>2026-04-18T11:57:55.988Z</time></trkpt><trkpt lat="44.7076476" lon="12.1999523"><ele>-4.0</ele><time>2026-04-18T11:57:56.987Z</time></trkpt><trkpt lat="44.7078169" lon="12.1998606"><ele>-4.0</ele><time>2026-04-18T11:57:57.988Z</time></trkpt><trkpt lat="44.7080052" lon="12.1997498"><ele>-4.333333333333333</ele><time>2026-04-18T11:57:58.987Z</time></trkpt><trkpt lat="44.7081972" lon="12.1996336"><ele>-4.666666666666667</ele><time>2026-04-18T11:57:59.988Z</time></trkpt><trkpt lat="44.7083828" lon="12.199524"><ele>-5.0</ele><time>2026-04-18T11:58:00.988Z</time></trkpt><trkpt lat="44.708567" lon="12.1994199"><ele>-4.666666666666667</ele><time>2026-04-18T11:58:01.987Z</time></trkpt><trkpt lat="44.708748" lon="12.1993188"><ele>-4.333333333333333</ele><time>2026-04-18T11:58:02.988Z</time></trkpt><trkpt lat="44.7089239" lon="12.1992173"><ele>-4.0</ele><time>2026-04-18T11:58:03.988Z</time></trkpt><trkpt lat="44.7090859" lon="12.1991189"><ele>-4.0</ele><time>2026-04-18T11:58:04.988Z</time></trkpt><trkpt lat="44.7092421" lon="12.1990226"><ele>-4.0</ele><time>2026-04-18T11:58:05.989Z</time></trkpt><trkpt lat="44.7094061" lon="12.1989258"><ele>-4.0</ele><time>2026-04-18T11:58:06.988Z</time></trkpt><trkpt lat="44.7095905" lon="12.198825"><ele>-3.6666666666666665</ele><time>2026-04-18T11:58:07.988Z</time></trkpt><trkpt lat="44.7098007" lon="12.1987098"><ele>-3.333333333333333</ele><time>2026-04-18T11:58:08.988Z</time></trkpt><trkpt lat="44.7100055" lon="12.1985972"><ele>-3.0</ele><time>2026-04-18T11:58:09.988Z</time></trkpt><trkpt lat="44.7101953" lon="12.1984925"><ele>-3.0</ele><time>2026-04-18T11:58:10.988Z</time></trkpt><trkpt lat="44.7103734" lon="12.1983917"><ele>-3.0</ele><time>2026-04-18T11:58:11.988Z</time></trkpt><trkpt lat="44.710539" lon="12.1982961"><ele>-3.0</ele><time>2026-04-18T11:58:12.987Z</time></trkpt><trkpt lat="44.7106978" lon="12.1982043"><ele>-3.0</ele><time>2026-04-18T11:58:13.988Z</time></trkpt><trkpt lat="44.7108593" lon="12.1981055"><ele>-3.0</ele><time>2026-04-18T11:58:14.988Z</time></trkpt><trkpt lat="44.7110223" lon="12.1980042"><ele>-3.0</ele><time>2026-04-18T11:58:15.988Z</time></trkpt><trkpt lat="44.7111895" lon="12.1979093"><ele>-3.0</ele><time>2026-04-18T11:58:16.987Z</time></trkpt><trkpt lat="44.7113632" lon="12.1978195"><ele>-3.0</ele><time>2026-04-18T11:58:17.988Z</time></trkpt><trkpt lat="44.7115374" lon="12.1977307"><ele>-3.0</ele><time>2026-04-18T11:58:18.987Z</time></trkpt><trkpt lat="44.7117103" lon="12.1976362"><ele>-3.0</ele><time>2026-04-18T11:58:19.988Z</time></trkpt><trkpt lat="44.7118835" lon="12.1975364"><ele>-3.0</ele><time>2026-04-18T11:58:20.989Z</time></trkpt><trkpt lat="44.7120521" lon="12.1974389"><ele>-3.0</ele><time>2026-04-18T11:58:21.988Z</time></trkpt><trkpt lat="44.7122164" lon="12.1973439"><ele>-3.333333333333333</ele><time>2026-04-18T11:58:22.988Z</time></trkpt><trkpt lat="44.7123816" lon="12.197251"><ele>-3.6666666666666665</ele><time>2026-04-18T11:58:23.988Z</time></trkpt><trkpt lat="44.712544" lon="12.1971589"><ele>-4.0</ele><time>2026-04-18T11:58:24.988Z</time></trkpt><trkpt lat="44.7127067" lon="12.1970658"><ele>-4.0</ele><time>2026-04-18T11:58:25.987Z</time></trkpt><trkpt lat="44.712867" lon="12.1969715"><ele>-4.0</ele><time>2026-04-18T11:58:26.988Z</time></trkpt><trkpt lat="44.7130183" lon="12.1968808"><ele>-4.0</ele><time>2026-04-18T11:58:27.987Z</time></trkpt><trkpt lat="44.7131591" lon="12.1967953"><ele>-4.0</ele><time>2026-04-18T11:58:28.988Z</time></trkpt><trkpt lat="44.7132976" lon="12.1967099"><ele>-4.0</ele><time>2026-04-18T11:58:29.988Z</time></trkpt><trkpt lat="44.7134492" lon="12.1966269"><ele>-4.0</ele><time>2026-04-18T11:58:30.989Z</time></trkpt><trkpt lat="44.7136119" lon="12.1965439"><ele>-3.333333333333333</ele><time>2026-04-18T11:58:31.987Z</time></trkpt><trkpt lat="44.7137825" lon="12.1964478"><ele>-2.6666666666666665</ele><time>2026-04-18T11:58:32.987Z</time></trkpt><trkpt lat="44.7139595" lon="12.1963445"><ele>-2.0</ele><time>2026-04-18T11:58:33.988Z</time></trkpt><trkpt lat="44.7141328" lon="12.1962472"><ele>-2.0</ele><time>2026-04-18T11:58:34.987Z</time></trkpt><trkpt lat="44.7142928" lon="12.196161"><ele>-2.0</ele><time>2026-04-18T11:58:35.989Z</time></trkpt><trkpt lat="44.714441" lon="12.1960786"><ele>-2.0</ele><time>2026-04-18T11:58:36.988Z</time></trkpt><trkpt lat="44.7145802" lon="12.1959942"><ele>-2.0</ele><time>2026-04-18T11:58:37.988Z</time></trkpt><trkpt lat="44.7147118" lon="12.1959135"><ele>-2.0</ele><time>2026-04-18T11:58:38.987Z</time></trkpt><trkpt lat="44.7148358" lon="12.1958411"><ele>-2.0</ele><time>2026-04-18T11:58:39.987Z</time></trkpt><trkpt lat="44.7149505" lon="12.1957774"><ele>-2.0</ele><time>2026-04-18T11:58:40.988Z</time></trkpt><trkpt lat="44.7150492" lon="12.1957179"><ele>-1.9999999999999998</ele><time>2026-04-18T11:58:41.988Z</time></trkpt><trkpt lat="44.7151319" lon="12.1956636"><ele>-2.0</ele><time>2026-04-18T11:58:42.988Z</time></trkpt><trkpt lat="44.7151978" lon="12.1956186"><ele>-2.0</ele><time>2026-04-18T11:58:43.988Z</time></trkpt><trkpt lat="44.7152803" lon="12.195561"><ele>-2.0</ele><time>2026-04-18T11:58:45.987Z</time></trkpt><trkpt lat="44.7153437" lon="12.195537"><ele>-1.9999999999999998</ele><time>2026-04-18T11:58:47.987Z</time></trkpt><trkpt lat="44.7154234" lon="12.1954972"><ele>-2.0</ele><time>2026-04-18T11:58:48.988Z</time></trkpt><trkpt lat="44.715542" lon="12.1954324"><ele>-2.333333333333333</ele><time>2026-04-18T11:58:49.988Z</time></trkpt><trkpt lat="44.7156763" lon="12.1953618"><ele>-2.6666666666666665</ele><time>2026-04-18T11:58:50.987Z</time></trkpt><trkpt lat="44.7158178" lon="12.1952883"><ele>-3.0</ele><time>2026-04-18T11:58:51.987Z</time></trkpt><trkpt lat="44.7159674" lon="12.1952056"><ele>-3.333333333333333</ele><time>2026-04-18T11:58:52.986Z</time></trkpt><trkpt lat="44.7161276" lon="12.1951125"><ele>-3.6666666666666665</ele><time>2026-04-18T11:58:53.987Z</time></trkpt><trkpt lat="44.716297" lon="12.1950209"><ele>-4.0</ele><time>2026-04-18T11:58:54.987Z</time></trkpt><trkpt lat="44.716474" lon="12.1949202"><ele>-4.0</ele><time>2026-04-18T11:58:55.987Z</time></trkpt><trkpt lat="44.7166597" lon="12.19481"><ele>-4.0</ele><time>2026-04-18T11:58:56.987Z</time></trkpt><trkpt lat="44.7168531" lon="12.1946977"><ele>-4.0</ele><time>2026-04-18T11:58:57.987Z</time></trkpt><trkpt lat="44.7170488" lon="12.1945847"><ele>-4.0</ele><time>2026-04-18T11:58:58.987Z</time></trkpt><trkpt lat="44.7172499" lon="12.1944694"><ele>-4.0</ele><time>2026-04-18T11:58:59.987Z</time></trkpt><trkpt lat="44.7174549" lon="12.1943537"><ele>-4.0</ele><time>2026-04-18T11:59:00.987Z</time></trkpt><trkpt lat="44.7176592" lon="12.1942354"><ele>-4.0</ele><time>2026-04-18T11:59:01.987Z</time></trkpt><trkpt lat="44.7178656" lon="12.194114"><ele>-4.0</ele><time>2026-04-18T11:59:02.986Z</time></trkpt><trkpt lat="44.7180752" lon="12.1939926"><ele>-4.0</ele><time>2026-04-18T11:59:03.987Z</time></trkpt><trkpt lat="44.7182834" lon="12.1938743"><ele>-4.0</ele><time>2026-04-18T11:59:04.987Z</time></trkpt><trkpt lat="44.7184842" lon="12.1937647"><ele>-4.0</ele><time>2026-04-18T11:59:05.987Z</time></trkpt><trkpt lat="44.7186779" lon="12.193656"><ele>-4.0</ele><time>2026-04-18T11:59:06.987Z</time></trkpt><trkpt lat="44.7188652" lon="12.1935529"><ele>-4.0</ele><time>2026-04-18T11:59:07.987Z</time></trkpt><trkpt lat="44.7190623" lon="12.1934438"><ele>-4.0</ele><time>2026-04-18T11:59:08.987Z</time></trkpt><trkpt lat="44.7192673" lon="12.1933256"><ele>-4.0</ele><time>2026-04-18T11:59:09.986Z</time></trkpt><trkpt lat="44.7194696" lon="12.1932055"><ele>-4.0</ele><time>2026-04-18T11:59:10.986Z</time></trkpt><trkpt lat="44.7196768" lon="12.1930836"><ele>-4.0</ele><time>2026-04-18T11:59:11.987Z</time></trkpt><trkpt lat="44.7199003" lon="12.1929571"><ele>-4.0</ele><time>2026-04-18T11:59:12.987Z</time></trkpt><trkpt lat="44.7201085" lon="12.1928404"><ele>-4.0</ele><time>2026-04-18T11:59:13.988Z</time></trkpt><trkpt lat="44.7203131" lon="12.1927234"><ele>-4.0</ele><time>2026-04-18T11:59:14.986Z</time></trkpt><trkpt lat="44.7205006" lon="12.192615"><ele>-3.6666666666666665</ele><time>2026-04-18T11:59:15.987Z</time></trkpt><trkpt lat="44.7206767" lon="12.192515"><ele>-3.333333333333333</ele><time>2026-04-18T11:59:16.987Z</time></trkpt><trkpt lat="44.7208405" lon="12.1924225"><ele>-3.0</ele><time>2026-04-18T11:59:17.987Z</time></trkpt><trkpt lat="44.7209912" lon="12.1923375"><ele>-3.5</ele><time>2026-04-18T11:59:18.988Z</time></trkpt><trkpt lat="44.7211306" lon="12.1922583"><ele>-4.0</ele><time>2026-04-18T11:59:19.987Z</time></trkpt><trkpt lat="44.721255" lon="12.1921846"><ele>-4.5</ele><time>2026-04-18T11:59:20.986Z</time></trkpt><trkpt lat="44.7213663" lon="12.1921192"><ele>-5.0</ele><time>2026-04-18T11:59:21.986Z</time></trkpt><trkpt lat="44.7214672" lon="12.1920624"><ele>-5.0</ele><time>2026-04-18T11:59:22.987Z</time></trkpt><trkpt lat="44.7215541" lon="12.1920132"><ele>-5.0</ele><time>2026-04-18T11:59:23.987Z</time></trkpt><trkpt lat="44.7216217" lon="12.1919727"><ele>-5.0</ele><time>2026-04-18T11:59:24.987Z</time></trkpt><trkpt lat="44.7217359" lon="12.1919068"><ele>-5.0</ele><time>2026-04-18T11:59:26.987Z</time></trkpt><trkpt lat="44.7217956" lon="12.1918004"><ele>-5.0</ele><time>2026-04-18T11:59:28.987Z</time></trkpt><trkpt lat="44.7217735" lon="12.1916287"><ele>-5.0</ele><time>2026-04-18T11:59:30.988Z</time></trkpt><trkpt lat="44.7217309" lon="12.1914835"><ele>-5.0</ele><time>2026-04-18T11:59:31.986Z</time></trkpt><trkpt lat="44.7216726" lon="12.1912843"><ele>-5.0</ele><time>2026-04-18T11:59:32.987Z</time></trkpt><trkpt lat="44.7216078" lon="12.191058"><ele>-5.0</ele><time>2026-04-18T11:59:33.986Z</time></trkpt><trkpt lat="44.7215392" lon="12.1908244"><ele>-5.0</ele><time>2026-04-18T11:59:34.986Z</time></trkpt><trkpt lat="44.7214702" lon="12.1905804"><ele>-5.0</ele><time>2026-04-18T11:59:35.986Z</time></trkpt><trkpt lat="44.7214053" lon="12.1903547"><ele>-5.0</ele><time>2026-04-18T11:59:36.987Z</time></trkpt><trkpt lat="44.7213402" lon="12.190127"><ele>-5.0</ele><time>2026-04-18T11:59:37.986Z</time></trkpt><trkpt lat="44.7212759" lon="12.189901"><ele>-5.0</ele><time>2026-04-18T11:59:38.987Z</time></trkpt><trkpt lat="44.7212104" lon="12.1896758"><ele>-5.0</ele><time>2026-04-18T11:59:39.987Z</time></trkpt><trkpt lat="44.7211495" lon="12.1894524"><ele>-4.666666666666667</ele><time>2026-04-18T11:59:40.987Z</time></trkpt><trkpt lat="44.7210855" lon="12.1892247"><ele>-4.333333333333333</ele><time>2026-04-18T11:59:41.986Z</time></trkpt><trkpt lat="44.7210181" lon="12.1889931"><ele>-4.0</ele><time>2026-04-18T11:59:42.987Z</time></trkpt><trkpt lat="44.7209495" lon="12.1887574"><ele>-4.0</ele><time>2026-04-18T11:59:43.986Z</time></trkpt><trkpt lat="44.7208826" lon="12.1885183"><ele>-4.0</ele><time>2026-04-18T11:59:44.988Z</time></trkpt><trkpt lat="44.7208137" lon="12.1882788"><ele>-4.0</ele><time>2026-04-18T11:59:45.987Z</time></trkpt><trkpt lat="44.7207446" lon="12.1880377"><ele>-4.0</ele><time>2026-04-18T11:59:46.986Z</time></trkpt><trkpt lat="44.7206752" lon="12.1877991"><ele>-4.0</ele><time>2026-04-18T11:59:47.987Z</time></trkpt><trkpt lat="44.7206056" lon="12.1875582"><ele>-4.0</ele><time>2026-04-18T11:59:48.987Z</time></trkpt><trkpt lat="44.7205368" lon="12.1873127"><ele>-4.0</ele><time>2026-04-18T11:59:49.987Z</time></trkpt><trkpt lat="44.7204687" lon="12.1870725"><ele>-4.0</ele><time>2026-04-18T11:59:50.986Z</time></trkpt><trkpt lat="44.7204016" lon="12.1868375"><ele>-4.0</ele><time>2026-04-18T11:59:51.987Z</time></trkpt><trkpt lat="44.7203358" lon="12.1866075"><ele>-4.0</ele><time>2026-04-18T11:59:52.987Z</time></trkpt><trkpt lat="44.7202701" lon="12.1863787"><ele>-4.0</ele><time>2026-04-18T11:59:53.987Z</time></trkpt><trkpt lat="44.7202065" lon="12.1861517"><ele>-4.0</ele><time>2026-04-18T11:59:54.987Z</time></trkpt><trkpt lat="44.7201427" lon="12.1859328"><ele>-4.0</ele><time>2026-04-18T11:59:55.987Z</time></trkpt><trkpt lat="44.7200811" lon="12.1857259"><ele>-4.0</ele><time>2026-04-18T11:59:56.987Z</time></trkpt><trkpt lat="44.7200239" lon="12.1855312"><ele>-4.0</ele><time>2026-04-18T11:59:57.987Z</time></trkpt><trkpt lat="44.7199726" lon="12.1853536"><ele>-4.0</ele><time>2026-04-18T11:59:58.988Z</time></trkpt><trkpt lat="44.7199246" lon="12.1851918"><ele>-4.0</ele><time>2026-04-18T11:59:59.987Z</time></trkpt><trkpt lat="44.719884" lon="12.1850447"><ele>-4.0</ele><time>2026-04-18T12:00:00.986Z</time></trkpt><trkpt lat="44.7198514" lon="12.1849141"><ele>-4.0</ele><time>2026-04-18T12:00:01.986Z</time></trkpt><trkpt lat="44.7198266" lon="12.1847995"><ele>-4.0</ele><time>2026-04-18T12:00:02.986Z</time></trkpt><trkpt lat="44.7197948" lon="12.1846785"><ele>-4.0</ele><time>2026-04-18T12:00:03.987Z</time></trkpt><trkpt lat="44.7197413" lon="12.1845062"><ele>-4.0</ele><time>2026-04-18T12:00:04.987Z</time></trkpt><trkpt lat="44.7196771" lon="12.1842827"><ele>-4.0</ele><time>2026-04-18T12:00:05.987Z</time></trkpt><trkpt lat="44.7196118" lon="12.1840456"><ele>-4.0</ele><time>2026-04-18T12:00:06.987Z</time></trkpt><trkpt lat="44.7195518" lon="12.1838323"><ele>-3.75</ele><time>2026-04-18T12:00:07.987Z</time></trkpt><trkpt lat="44.7194958" lon="12.1836415"><ele>-3.5</ele><time>2026-04-18T12:00:08.987Z</time></trkpt><trkpt lat="44.7194431" lon="12.1834533"><ele>-3.25</ele><time>2026-04-18T12:00:09.987Z</time></trkpt><trkpt lat="44.7193927" lon="12.1832658"><ele>-3.0</ele><time>2026-04-18T12:00:10.987Z</time></trkpt><trkpt lat="44.7193376" lon="12.1830665"><ele>-2.6666666666666665</ele><time>2026-04-18T12:00:11.987Z</time></trkpt><trkpt lat="44.7192715" lon="12.1828497"><ele>-2.333333333333333</ele><time>2026-04-18T12:00:12.987Z</time></trkpt><trkpt lat="44.7192015" lon="12.1826168"><ele>-2.0</ele><time>2026-04-18T12:00:13.987Z</time></trkpt><trkpt lat="44.719137" lon="12.1823799"><ele>-2.333333333333333</ele><time>2026-04-18T12:00:14.987Z</time></trkpt><trkpt lat="44.7190668" lon="12.1821382"><ele>-2.6666666666666665</ele><time>2026-04-18T12:00:15.987Z</time></trkpt><trkpt lat="44.7189955" lon="12.1818927"><ele>-3.0</ele><time>2026-04-18T12:00:16.987Z</time></trkpt><trkpt lat="44.7189247" lon="12.1816457"><ele>-3.333333333333333</ele><time>2026-04-18T12:00:17.987Z</time></trkpt><trkpt lat="44.7188527" lon="12.1813939"><ele>-3.6666666666666665</ele><time>2026-04-18T12:00:18.987Z</time></trkpt><trkpt lat="44.7187791" lon="12.1811367"><ele>-4.0</ele><time>2026-04-18T12:00:19.987Z</time></trkpt><trkpt lat="44.7187041" lon="12.1808761"><ele>-4.0</ele><time>2026-04-18T12:00:20.987Z</time></trkpt><trkpt lat="44.7186284" lon="12.1806121"><ele>-4.0</ele><time>2026-04-18T12:00:21.987Z</time></trkpt><trkpt lat="44.7185514" lon="12.1803465"><ele>-4.0</ele><time>2026-04-18T12:00:22.987Z</time></trkpt><trkpt lat="44.718474" lon="12.1800792"><ele>-4.333333333333333</ele><time>2026-04-18T12:00:23.986Z</time></trkpt><trkpt lat="44.7183981" lon="12.1798115"><ele>-4.666666666666667</ele><time>2026-04-18T12:00:24.987Z</time></trkpt><trkpt lat="44.7183178" lon="12.1795447"><ele>-5.0</ele><time>2026-04-18T12:00:25.987Z</time></trkpt><trkpt lat="44.7182421" lon="12.17928"><ele>-4.666666666666667</ele><time>2026-04-18T12:00:26.987Z</time></trkpt><trkpt lat="44.7181646" lon="12.1790132"><ele>-4.333333333333333</ele><time>2026-04-18T12:00:27.987Z</time></trkpt><trkpt lat="44.7180938" lon="12.1787621"><ele>-4.0</ele><time>2026-04-18T12:00:28.987Z</time></trkpt><trkpt lat="44.7180297" lon="12.1785325"><ele>-4.0</ele><time>2026-04-18T12:00:29.987Z</time></trkpt><trkpt lat="44.7179725" lon="12.1783241"><ele>-4.0</ele><time>2026-04-18T12:00:30.987Z</time></trkpt><trkpt lat="44.7179219" lon="12.1781487"><ele>-4.0</ele><time>2026-04-18T12:00:31.987Z</time></trkpt><trkpt lat="44.7178726" lon="12.1780054"><ele>-4.0</ele><time>2026-04-18T12:00:32.986Z</time></trkpt><trkpt lat="44.71783" lon="12.1778927"><ele>-4.0</ele><time>2026-04-18T12:00:33.987Z</time></trkpt><trkpt lat="44.7178074" lon="12.1777964"><ele>-4.0</ele><time>2026-04-18T12:00:34.987Z</time></trkpt><trkpt lat="44.7178398" lon="12.1776505"><ele>-4.0</ele><time>2026-04-18T12:00:36.986Z</time></trkpt><trkpt lat="44.7178957" lon="12.1775946"><ele>-4.0</ele><time>2026-04-18T12:00:37.987Z</time></trkpt><trkpt lat="44.7179869" lon="12.1775229"><ele>-4.0</ele><time>2026-04-18T12:00:38.987Z</time></trkpt><trkpt lat="44.7180967" lon="12.1774387"><ele>-3.6</ele><time>2026-04-18T12:00:39.987Z</time></trkpt><trkpt lat="44.718207" lon="12.1773476"><ele>-3.2</ele><time>2026-04-18T12:00:40.987Z</time></trkpt><trkpt lat="44.7183049" lon="12.1772643"><ele>-2.8000000000000003</ele><time>2026-04-18T12:00:41.986Z</time></trkpt><trkpt lat="44.7183947" lon="12.1771968"><ele>-2.4000000000000004</ele><time>2026-04-18T12:00:42.987Z</time></trkpt><trkpt lat="44.7184736" lon="12.1771284"><ele>-2.0</ele><time>2026-04-18T12:00:43.987Z</time></trkpt><trkpt lat="44.7185511" lon="12.1770451"><ele>-2.2</ele><time>2026-04-18T12:00:44.987Z</time></trkpt><trkpt lat="44.7186295" lon="12.1769492"><ele>-2.4000000000000004</ele><time>2026-04-18T12:00:45.987Z</time></trkpt><trkpt lat="44.7187173" lon="12.1768534"><ele>-2.5999999999999996</ele><time>2026-04-18T12:00:46.987Z</time></trkpt><trkpt lat="44.7188131" lon="12.1767724"><ele>-2.8</ele><time>2026-04-18T12:00:47.987Z</time></trkpt><trkpt lat="44.7189038" lon="12.1767021"><ele>-3.0</ele><time>2026-04-18T12:00:48.988Z</time></trkpt><trkpt lat="44.7189802" lon="12.1766424"><ele>-3.0</ele><time>2026-04-18T12:00:49.987Z</time></trkpt><trkpt lat="44.7190535" lon="12.1765881"><ele>-3.0</ele><time>2026-04-18T12:00:50.987Z</time></trkpt><trkpt lat="44.7191405" lon="12.176532"><ele>-3.0</ele><time>2026-04-18T12:00:51.987Z</time></trkpt><trkpt lat="44.7192331" lon="12.1764628"><ele>-3.0</ele><time>2026-04-18T12:00:52.986Z</time></trkpt><trkpt lat="44.7193248" lon="12.1763852"><ele>-3.0</ele><time>2026-04-18T12:00:53.987Z</time></trkpt><trkpt lat="44.7194192" lon="12.1763056"><ele>-3.25</ele><time>2026-04-18T12:00:54.988Z</time></trkpt><trkpt lat="44.7195169" lon="12.1762215"><ele>-3.5</ele><time>2026-04-18T12:00:55.986Z</time></trkpt><trkpt lat="44.719614" lon="12.1761247"><ele>-3.75</ele><time>2026-04-18T12:00:56.987Z</time></trkpt><trkpt lat="44.7197172" lon="12.1760283"><ele>-4.0</ele><time>2026-04-18T12:00:57.986Z</time></trkpt><trkpt lat="44.7198169" lon="12.1759319"><ele>-4.0</ele><time>2026-04-18T12:00:58.987Z</time></trkpt><trkpt lat="44.7199151" lon="12.1758396"><ele>-4.0</ele><time>2026-04-18T12:00:59.988Z</time></trkpt><trkpt lat="44.7200172" lon="12.17576"><ele>-4.0</ele><time>2026-04-18T12:01:00.987Z</time></trkpt><trkpt lat="44.7201223" lon="12.1756822"><ele>-4.0</ele><time>2026-04-18T12:01:01.987Z</time></trkpt><trkpt lat="44.7202254" lon="12.1756075"><ele>-4.0</ele><time>2026-04-18T12:01:02.987Z</time></trkpt><trkpt lat="44.7203305" lon="12.1755328"><ele>-4.0</ele><time>2026-04-18T12:01:03.987Z</time></trkpt><trkpt lat="44.7204325" lon="12.1754549"><ele>-4.0</ele><time>2026-04-18T12:01:04.987Z</time></trkpt><trkpt lat="44.7205372" lon="12.1753662"><ele>-4.0</ele><time>2026-04-18T12:01:05.987Z</time></trkpt><trkpt lat="44.7206432" lon="12.1752752"><ele>-4.0</ele><time>2026-04-18T12:01:06.987Z</time></trkpt><trkpt lat="44.7207515" lon="12.1751801"><ele>-4.0</ele><time>2026-04-18T12:01:07.987Z</time></trkpt><trkpt lat="44.7208614" lon="12.17509"><ele>-4.0</ele><time>2026-04-18T12:01:08.987Z</time></trkpt><trkpt lat="44.7209713" lon="12.1750004"><ele>-4.0</ele><time>2026-04-18T12:01:09.987Z</time></trkpt><trkpt lat="44.7210814" lon="12.1749099"><ele>-4.0</ele><time>2026-04-18T12:01:10.987Z</time></trkpt><trkpt lat="44.7211889" lon="12.174822"><ele>-4.0</ele><time>2026-04-18T12:01:11.986Z</time></trkpt><trkpt lat="44.7212976" lon="12.1747313"><ele>-4.0</ele><time>2026-04-18T12:01:12.986Z</time></trkpt><trkpt lat="44.7214109" lon="12.1746366"><ele>-4.0</ele><time>2026-04-18T12:01:13.987Z</time></trkpt><trkpt lat="44.7215258" lon="12.1745426"><ele>-4.0</ele><time>2026-04-18T12:01:14.987Z</time></trkpt><trkpt lat="44.7216451" lon="12.1744503"><ele>-4.0</ele><time>2026-04-18T12:01:15.986Z</time></trkpt><trkpt lat="44.7217653" lon="12.1743545"><ele>-4.0</ele><time>2026-04-18T12:01:16.987Z</time></trkpt><trkpt lat="44.7218882" lon="12.1742609"><ele>-4.0</ele><time>2026-04-18T12:01:17.987Z</time></trkpt><trkpt lat="44.7220166" lon="12.1741677"><ele>-3.75</ele><time>2026-04-18T12:01:18.987Z</time></trkpt><trkpt lat="44.7221481" lon="12.1740803"><ele>-3.5</ele><time>2026-04-18T12:01:19.987Z</time></trkpt><trkpt lat="44.72228" lon="12.1740055"><ele>-3.25</ele><time>2026-04-18T12:01:20.987Z</time></trkpt><trkpt lat="44.7224158" lon="12.1739449"><ele>-3.0</ele><time>2026-04-18T12:01:21.987Z</time></trkpt><trkpt lat="44.7225543" lon="12.1738844"><ele>-3.0</ele><time>2026-04-18T12:01:22.987Z</time></trkpt><trkpt lat="44.7226936" lon="12.1738233"><ele>-3.0</ele><time>2026-04-18T12:01:23.986Z</time></trkpt><trkpt lat="44.7228307" lon="12.1737656"><ele>-3.0</ele><time>2026-04-18T12:01:24.987Z</time></trkpt><trkpt lat="44.722967" lon="12.1737091"><ele>-3.0</ele><time>2026-04-18T12:01:25.987Z</time></trkpt><trkpt lat="44.7231026" lon="12.1736542"><ele>-3.0</ele><time>2026-04-18T12:01:26.986Z</time></trkpt><trkpt lat="44.7232417" lon="12.1735988"><ele>-3.0</ele><time>2026-04-18T12:01:27.986Z</time></trkpt><trkpt lat="44.7233795" lon="12.1735441"><ele>-3.0</ele><time>2026-04-18T12:01:28.987Z</time></trkpt><trkpt lat="44.7235139" lon="12.1734956"><ele>-3.0</ele><time>2026-04-18T12:01:29.987Z</time></trkpt><trkpt lat="44.7236331" lon="12.1734486"><ele>-2.75</ele><time>2026-04-18T12:01:30.987Z</time></trkpt><trkpt lat="44.7237565" lon="12.1733903"><ele>-2.5</ele><time>2026-04-18T12:01:31.987Z</time></trkpt><trkpt lat="44.7238892" lon="12.1733271"><ele>-2.25</ele><time>2026-04-18T12:01:32.986Z</time></trkpt><trkpt lat="44.7240303" lon="12.17326"><ele>-2.0</ele><time>2026-04-18T12:01:33.987Z</time></trkpt><trkpt lat="44.7241738" lon="12.1731894"><ele>-2.5</ele><time>2026-04-18T12:01:34.987Z</time></trkpt><trkpt lat="44.7243096" lon="12.1731255"><ele>-3.0</ele><time>2026-04-18T12:01:35.986Z</time></trkpt><trkpt lat="44.7244369" lon="12.1730663"><ele>-3.5</ele><time>2026-04-18T12:01:36.987Z</time></trkpt><trkpt lat="44.7245653" lon="12.1729942"><ele>-4.0</ele><time>2026-04-18T12:01:37.988Z</time></trkpt><trkpt lat="44.7246925" lon="12.1729101"><ele>-4.0</ele><time>2026-04-18T12:01:38.986Z</time></trkpt><trkpt lat="44.7248086" lon="12.1728292"><ele>-4.0</ele><time>2026-04-18T12:01:39.987Z</time></trkpt><trkpt lat="44.7249237" lon="12.1727387"><ele>-4.0</ele><time>2026-04-18T12:01:40.987Z</time></trkpt><trkpt lat="44.7250387" lon="12.1726445"><ele>-4.0</ele><time>2026-04-18T12:01:41.987Z</time></trkpt><trkpt lat="44.725156" lon="12.1725455"><ele>-3.75</ele><time>2026-04-18T12:01:42.987Z</time></trkpt><trkpt lat="44.7252774" lon="12.1724476"><ele>-3.5</ele><time>2026-04-18T12:01:43.987Z</time></trkpt><trkpt lat="44.725394" lon="12.1723606"><ele>-3.25</ele><time>2026-04-18T12:01:44.987Z</time></trkpt><trkpt lat="44.7255125" lon="12.1722661"><ele>-3.0</ele><time>2026-04-18T12:01:45.987Z</time></trkpt><trkpt lat="44.725635" lon="12.172167"><ele>-2.75</ele><time>2026-04-18T12:01:46.987Z</time></trkpt><trkpt lat="44.7257515" lon="12.1720688"><ele>-2.5</ele><time>2026-04-18T12:01:47.987Z</time></trkpt><trkpt lat="44.7258663" lon="12.1719728"><ele>-2.25</ele><time>2026-04-18T12:01:48.987Z</time></trkpt><trkpt lat="44.7259859" lon="12.1718684"><ele>-2.0</ele><time>2026-04-18T12:01:49.987Z</time></trkpt><trkpt lat="44.7261013" lon="12.1717541"><ele>-2.0</ele><time>2026-04-18T12:01:50.986Z</time></trkpt><trkpt lat="44.7262165" lon="12.1716353"><ele>-2.0</ele><time>2026-04-18T12:01:51.987Z</time></trkpt><trkpt lat="44.7263325" lon="12.171511"><ele>-2.0</ele><time>2026-04-18T12:01:52.987Z</time></trkpt><trkpt lat="44.7264515" lon="12.1713772"><ele>-2.0</ele><time>2026-04-18T12:01:53.987Z</time></trkpt><trkpt lat="44.7265722" lon="12.1712467"><ele>-2.0</ele><time>2026-04-18T12:01:54.987Z</time></trkpt><trkpt lat="44.7266963" lon="12.1711207"><ele>-2.0</ele><time>2026-04-18T12:01:55.987Z</time></trkpt><trkpt lat="44.7268255" lon="12.1710018"><ele>-2.0</ele><time>2026-04-18T12:01:56.986Z</time></trkpt><trkpt lat="44.7269588" lon="12.1708928"><ele>-1.75</ele><time>2026-04-18T12:01:57.986Z</time></trkpt><trkpt lat="44.727083" lon="12.170791"><ele>-1.5</ele><time>2026-04-18T12:01:58.987Z</time></trkpt><trkpt lat="44.7272023" lon="12.1706859"><ele>-1.25</ele><time>2026-04-18T12:01:59.987Z</time></trkpt><trkpt lat="44.7273235" lon="12.1705774"><ele>-1.0</ele><time>2026-04-18T12:02:00.987Z</time></trkpt><trkpt lat="44.727458" lon="12.1704666"><ele>-1.0</ele><time>2026-04-18T12:02:01.986Z</time></trkpt><trkpt lat="44.7276091" lon="12.1703599"><ele>-1.0</ele><time>2026-04-18T12:02:02.988Z</time></trkpt><trkpt lat="44.7277617" lon="12.1702586"><ele>-1.0</ele><time>2026-04-18T12:02:03.987Z</time></trkpt><trkpt lat="44.7279107" lon="12.1701571"><ele>-1.0</ele><time>2026-04-18T12:02:04.987Z</time></trkpt><trkpt lat="44.7280524" lon="12.1700579"><ele>-1.0</ele><time>2026-04-18T12:02:05.987Z</time></trkpt><trkpt lat="44.7281852" lon="12.1699674"><ele>-1.0</ele><time>2026-04-18T12:02:06.987Z</time></trkpt><trkpt lat="44.7283171" lon="12.1698864"><ele>-1.0</ele><time>2026-04-18T12:02:07.987Z</time></trkpt><trkpt lat="44.7284427" lon="12.1698164"><ele>-1.0</ele><time>2026-04-18T12:02:08.986Z</time></trkpt><trkpt lat="44.7285548" lon="12.1697472"><ele>-1.0</ele><time>2026-04-18T12:02:09.987Z</time></trkpt><trkpt lat="44.7286721" lon="12.1696554"><ele>-1.0</ele><time>2026-04-18T12:02:10.988Z</time></trkpt><trkpt lat="44.7288003" lon="12.1695437"><ele>-1.0</ele><time>2026-04-18T12:02:11.987Z</time></trkpt><trkpt lat="44.7289135" lon="12.1694335"><ele>-1.0</ele><time>2026-04-18T12:02:12.986Z</time></trkpt><trkpt lat="44.7290246" lon="12.1693246"><ele>-1.0</ele><time>2026-04-18T12:02:13.986Z</time></trkpt><trkpt lat="44.7291445" lon="12.1692159"><ele>-1.0</ele><time>2026-04-18T12:02:14.987Z</time></trkpt><trkpt lat="44.7292575" lon="12.169121"><ele>-1.0</ele><time>2026-04-18T12:02:15.987Z</time></trkpt><trkpt lat="44.7293713" lon="12.1690362"><ele>-1.0</ele><time>2026-04-18T12:02:16.987Z</time></trkpt><trkpt lat="44.7294903" lon="12.1689514"><ele>-1.0</ele><time>2026-04-18T12:02:17.987Z</time></trkpt><trkpt lat="44.7296118" lon="12.1688614"><ele>-1.0</ele><time>2026-04-18T12:02:18.987Z</time></trkpt><trkpt lat="44.729735" lon="12.1687698"><ele>-1.0</ele><time>2026-04-18T12:02:19.987Z</time></trkpt><trkpt lat="44.7298458" lon="12.1686859"><ele>-1.0</ele><time>2026-04-18T12:02:20.987Z</time></trkpt><trkpt lat="44.7299388" lon="12.1686134"><ele>-1.0</ele><time>2026-04-18T12:02:21.987Z</time></trkpt><trkpt lat="44.7300153" lon="12.1685527"><ele>-1.0</ele><time>2026-04-18T12:02:22.986Z</time></trkpt><trkpt lat="44.7300772" lon="12.1684957"><ele>-1.0</ele><time>2026-04-18T12:02:23.986Z</time></trkpt><trkpt lat="44.7301505" lon="12.1684285"><ele>-0.9999999999999999</ele><time>2026-04-18T12:02:25.987Z</time></trkpt><trkpt lat="44.7301553" lon="12.1685556"><ele>-1.0</ele><time>2026-04-18T12:02:28.987Z</time></trkpt><trkpt lat="44.7300614" lon="12.1686809"><ele>-1.0</ele><time>2026-04-18T12:02:30.987Z</time></trkpt><trkpt lat="44.7300151" lon="12.1687599"><ele>-1.0</ele><time>2026-04-18T12:02:31.987Z</time></trkpt><trkpt lat="44.7299759" lon="12.1688354"><ele>-0.9999999999999999</ele><time>2026-04-18T12:02:32.986Z</time></trkpt><trkpt lat="44.7299378" lon="12.1689243"><ele>-1.0</ele><time>2026-04-18T12:02:33.987Z</time></trkpt><trkpt lat="44.7298968" lon="12.1690484"><ele>-1.2000000000000002</ele><time>2026-04-18T12:02:34.988Z</time></trkpt><trkpt lat="44.7298465" lon="12.1691988"><ele>-1.4000000000000001</ele><time>2026-04-18T12:02:35.987Z</time></trkpt><trkpt lat="44.7297965" lon="12.1693479"><ele>-1.6</ele><time>2026-04-18T12:02:36.986Z</time></trkpt><trkpt lat="44.7297549" lon="12.169482"><ele>-1.8</ele><time>2026-04-18T12:02:37.987Z</time></trkpt><trkpt lat="44.7297166" lon="12.1696007"><ele>-2.0</ele><time>2026-04-18T12:02:38.988Z</time></trkpt><trkpt lat="44.7296718" lon="12.1697158"><ele>-1.9999999999999998</ele><time>2026-04-18T12:02:39.986Z</time></trkpt><trkpt lat="44.7296228" lon="12.1698291"><ele>-2.0</ele><time>2026-04-18T12:02:40.987Z</time></trkpt><trkpt lat="44.7295815" lon="12.1699315"><ele>-2.0</ele><time>2026-04-18T12:02:41.987Z</time></trkpt><trkpt lat="44.7295641" lon="12.1700311"><ele>-2.0</ele><time>2026-04-18T12:02:42.987Z</time></trkpt><trkpt lat="44.7295715" lon="12.1701209"><ele>-1.9999999999999998</ele><time>2026-04-18T12:02:43.987Z</time></trkpt><trkpt lat="44.7295309" lon="12.1702609"><ele>-2.0</ele><time>2026-04-18T12:02:45.987Z</time></trkpt><trkpt lat="44.7294855" lon="12.1703353"><ele>-2.0</ele><time>2026-04-18T12:02:46.987Z</time></trkpt><trkpt lat="44.7294435" lon="12.1704726"><ele>-2.0</ele><time>2026-04-18T12:02:48.986Z</time></trkpt><trkpt lat="44.7294345" lon="12.1705806"><ele>-2.0</ele><time>2026-04-18T12:02:49.986Z</time></trkpt><trkpt lat="44.7294112" lon="12.1707078"><ele>-2.0</ele><time>2026-04-18T12:02:50.986Z</time></trkpt><trkpt lat="44.7293928" lon="12.1708361"><ele>-2.0</ele><time>2026-04-18T12:02:51.986Z</time></trkpt><trkpt lat="44.7293927" lon="12.1709541"><ele>-1.9999999999999998</ele><time>2026-04-18T12:02:52.985Z</time></trkpt><trkpt lat="44.7294216" lon="12.171059"><ele>-2.0</ele><time>2026-04-18T12:02:54.986Z</time></trkpt><trkpt lat="44.7294874" lon="12.1710082"><ele>-2.0</ele><time>2026-04-18T12:02:56.985Z</time></trkpt><trkpt lat="44.7295455" lon="12.1710443"><ele>-2.0</ele><time>2026-04-18T12:02:58.986Z</time></trkpt><trkpt lat="44.7295423" lon="12.1711706"><ele>-1.9999999999999998</ele><time>2026-04-18T12:03:00.986Z</time></trkpt><trkpt lat="44.7295283" lon="12.171264"><ele>-2.0</ele><time>2026-04-18T12:03:01.985Z</time></trkpt><trkpt lat="44.7295138" lon="12.1714125"><ele>-1.2000000000000002</ele><time>2026-04-18T12:03:03.985Z</time></trkpt><trkpt lat="44.7295188" lon="12.1715571"><ele>-0.40000000000000013</ele><time>2026-04-18T12:03:05.985Z</time></trkpt><trkpt lat="44.7295566" lon="12.171705"><ele>0.40000000000000013</ele><time>2026-04-18T12:03:07.986Z</time></trkpt><trkpt lat="44.729626" lon="12.171754"><ele>1.2000000000000002</ele><time>2026-04-18T12:03:09.986Z</time></trkpt><trkpt lat="44.7296927" lon="12.1717295"><ele>2.0</ele><time>2026-04-18T12:03:11.986Z</time></trkpt><trkpt lat="44.7297965" lon="12.1717102"><ele>1.9999999999999998</ele><time>2026-04-18T12:03:30.985Z</time></trkpt><trkpt lat="44.7298882" lon="12.1717267"><ele>2.0</ele><time>2026-04-18T12:03:32.985Z</time></trkpt><trkpt lat="44.7299818" lon="12.1717447"><ele>2.0</ele><time>2026-04-18T12:03:34.986Z</time></trkpt><trkpt lat="44.7300278" lon="12.1718552"><ele>2.0</ele><time>2026-04-18T12:03:36.986Z</time></trkpt><trkpt lat="44.7300942" lon="12.171892"><ele>1.9999999999999998</ele><time>2026-04-18T12:03:39.985Z</time></trkpt><trkpt lat="44.7301782" lon="12.1718821"><ele>2.0</ele><time>2026-04-18T12:03:42.985Z</time></trkpt><trkpt lat="44.7302425" lon="12.1718742"><ele>1.9999999999999998</ele><time>2026-04-18T12:03:44.997Z</time></trkpt><trkpt lat="44.7303145" lon="12.171865"><ele>2.0</ele><time>2026-04-18T12:03:46.985Z</time></trkpt><trkpt lat="44.730409" lon="12.1718718"><ele>2.0</ele><time>2026-04-18T12:03:49.986Z</time></trkpt><trkpt lat="44.7303899" lon="12.1719567"><ele>2.0</ele><time>2026-04-18T12:03:52.986Z</time></trkpt><trkpt lat="44.7302919" lon="12.1719658"><ele>1.9999999999999998</ele><time>2026-04-18T12:03:55.986Z</time></trkpt><trkpt lat="44.730234" lon="12.1720085"><ele>2.0</ele><time>2026-04-18T12:03:56.986Z</time></trkpt><trkpt lat="44.7301524" lon="12.1720742"><ele>1.9999999999999998</ele><time>2026-04-18T12:03:57.986Z</time></trkpt><trkpt lat="44.7300855" lon="12.1721226"><ele>2.0</ele><time>2026-04-18T12:03:58.986Z</time></trkpt><trkpt lat="44.7300148" lon="12.172178"><ele>2.0</ele><time>2026-04-18T12:03:59.986Z</time></trkpt><trkpt lat="44.729931" lon="12.1722521"><ele>2.0</ele><time>2026-04-18T12:04:00.986Z</time></trkpt><trkpt lat="44.7298647" lon="12.1723141"><ele>1.9999999999999998</ele><time>2026-04-18T12:04:01.986Z</time></trkpt><trkpt lat="44.7297967" lon="12.1724056"><ele>2.0</ele><time>2026-04-18T12:04:03.986Z</time></trkpt><trkpt lat="44.7298283" lon="12.1724942"><ele>3.0</ele><time>2026-04-18T12:04:05.985Z</time></trkpt><trkpt lat="44.72993" lon="12.1724613"><ele>4.0</ele><time>2026-04-18T12:04:07.985Z</time></trkpt><trkpt lat="44.72996" lon="12.1725642"><ele>4.999999999999999</ele><time>2026-04-18T12:04:10.986Z</time></trkpt><trkpt lat="44.7298634" lon="12.1726091"><ele>6.0</ele><time>2026-04-18T12:04:12.986Z</time></trkpt><trkpt lat="44.7297856" lon="12.1726284"><ele>7.0</ele><time>2026-04-18T12:04:13.986Z</time></trkpt><trkpt lat="44.7297348" lon="12.1724938"><ele>6.166666666666667</ele><time>2026-04-18T12:04:16.986Z</time></trkpt><trkpt lat="44.7297456" lon="12.1723505"><ele>5.333333333333334</ele><time>2026-04-18T12:04:17.987Z</time></trkpt><trkpt lat="44.7297536" lon="12.1722094"><ele>4.5</ele><time>2026-04-18T12:04:18.986Z</time></trkpt><trkpt lat="44.7297528" lon="12.1721111"><ele>3.666666666666667</ele><time>2026-04-18T12:04:19.986Z</time></trkpt><trkpt lat="44.7297156" lon="12.1720379"><ele>2.833333333333333</ele><time>2026-04-18T12:04:21.986Z</time></trkpt><trkpt lat="44.7296434" lon="12.1721252"><ele>2.0</ele><time>2026-04-18T12:04:23.986Z</time></trkpt><trkpt lat="44.7295815" lon="12.1722065"><ele>2.0</ele><time>2026-04-18T12:04:25.986Z</time></trkpt><trkpt lat="44.7296098" lon="12.1723423"><ele>2.0</ele><time>2026-04-18T12:04:27.986Z</time></trkpt><trkpt lat="44.7296556" lon="12.1724752"><ele>2.0</ele><time>2026-04-18T12:04:28.985Z</time></trkpt><trkpt lat="44.7297058" lon="12.1726316"><ele>2.0</ele><time>2026-04-18T12:04:29.986Z</time></trkpt><trkpt lat="44.7297481" lon="12.1727486"><ele>2.0</ele><time>2026-04-18T12:04:30.986Z</time></trkpt><trkpt lat="44.7297861" lon="12.1728283"><ele>3.0</ele><time>2026-04-18T12:04:31.987Z</time></trkpt><trkpt lat="44.7298773" lon="12.1728601"><ele>4.0</ele><time>2026-04-18T12:04:33.986Z</time></trkpt><trkpt lat="44.7299566" lon="12.1727415"><ele>4.999999999999999</ele><time>2026-04-18T12:04:35.986Z</time></trkpt><trkpt lat="44.7300175" lon="12.1726875"><ele>6.0</ele><time>2026-04-18T12:04:36.985Z</time></trkpt><trkpt lat="44.7301177" lon="12.17269"><ele>7.0</ele><time>2026-04-18T12:04:38.986Z</time></trkpt><trkpt lat="44.7301776" lon="12.1728451"><ele>7.0</ele><time>2026-04-18T12:04:40.986Z</time></trkpt><trkpt lat="44.7302042" lon="12.1729897"><ele>6.999999999999999</ele><time>2026-04-18T12:04:41.986Z</time></trkpt><trkpt lat="44.7302333" lon="12.1731332"><ele>6.999999999999999</ele><time>2026-04-18T12:04:42.986Z</time></trkpt><trkpt lat="44.73026" lon="12.1732144"><ele>7.0</ele><time>2026-04-18T12:04:43.986Z</time></trkpt><trkpt lat="44.7303329" lon="12.1732837"><ele>7.0</ele><time>2026-04-18T12:04:45.985Z</time></trkpt><trkpt lat="44.7304361" lon="12.1732925"><ele>5.333333333333334</ele><time>2026-04-18T12:04:47.985Z</time></trkpt><trkpt lat="44.7305129" lon="12.1733036"><ele>3.666666666666667</ele><time>2026-04-18T12:04:50.986Z</time></trkpt><trkpt lat="44.7305864" lon="12.1733121"><ele>2.0</ele><time>2026-04-18T12:04:53.986Z</time></trkpt><trkpt lat="44.7306477" lon="12.1732538"><ele>0.3333333333333335</ele><time>2026-04-18T12:04:56.986Z</time></trkpt><trkpt lat="44.7307221" lon="12.1732357"><ele>-1.3333333333333333</ele><time>2026-04-18T12:05:00.985Z</time></trkpt><trkpt lat="44.7307342" lon="12.1733865"><ele>-3.0</ele><time>2026-04-18T12:05:02.986Z</time></trkpt><trkpt lat="44.7307468" lon="12.1735135"><ele>-3.0</ele><time>2026-04-18T12:05:04.986Z</time></trkpt><trkpt lat="44.7307999" lon="12.1734068"><ele>-3.0</ele><time>2026-04-18T12:05:08.986Z</time></trkpt><trkpt lat="44.7307927" lon="12.1732763"><ele>-3.0</ele><time>2026-04-18T12:05:10.986Z</time></trkpt><trkpt lat="44.7307463" lon="12.1731332"><ele>-3.0</ele><time>2026-04-18T12:05:12.986Z</time></trkpt><trkpt lat="44.730709" lon="12.1730368"><ele>-3.0</ele><time>2026-04-18T12:05:14.985Z</time></trkpt><trkpt lat="44.7306832" lon="12.1729447"><ele>-3.0</ele><time>2026-04-18T12:05:16.986Z</time></trkpt><trkpt lat="44.7307609" lon="12.1729586"><ele>-3.0</ele><time>2026-04-18T12:05:19.986Z</time></trkpt><trkpt lat="44.7307814" lon="12.1730914"><ele>-3.0</ele><time>2026-04-18T12:05:21.986Z</time></trkpt><trkpt lat="44.7308176" lon="12.1732305"><ele>-3.0</ele><time>2026-04-18T12:05:23.986Z</time></trkpt><trkpt lat="44.7308425" lon="12.1733131"><ele>-3.0</ele><time>2026-04-18T12:05:25.986Z</time></trkpt><trkpt lat="44.7308664" lon="12.1733997"><ele>-3.0</ele><time>2026-04-18T12:05:29.986Z</time></trkpt><trkpt lat="44.730856" lon="12.1735135"><ele>-3.0</ele><time>2026-04-18T12:05:32.986Z</time></trkpt><trkpt lat="44.7307921" lon="12.1735379"><ele>-3.0</ele><time>2026-04-18T12:05:34.986Z</time></trkpt><trkpt lat="44.7307151" lon="12.1735924"><ele>-3.0</ele><time>2026-04-18T12:05:37.986Z</time></trkpt><trkpt lat="44.730658" lon="12.1735412"><ele>-3.0</ele><time>2026-04-18T12:05:39.986Z</time></trkpt><trkpt lat="44.7305667" lon="12.1734298"><ele>-3.0</ele><time>2026-04-18T12:05:41.986Z</time></trkpt><trkpt lat="44.7305126" lon="12.1733713"><ele>-3.0</ele><time>2026-04-18T12:05:42.986Z</time></trkpt><trkpt lat="44.7304533" lon="12.1733093"><ele>-3.0</ele><time>2026-04-18T12:05:43.985Z</time></trkpt><trkpt lat="44.7303769" lon="12.1732697"><ele>-3.0</ele><time>2026-04-18T12:05:45.986Z</time></trkpt><trkpt lat="44.7303017" lon="12.1732661"><ele>-3.0</ele><time>2026-04-18T12:05:47.987Z</time></trkpt><trkpt lat="44.7302271" lon="12.1732386"><ele>-3.0</ele><time>2026-04-18T12:05:49.986Z</time></trkpt><trkpt lat="44.7301629" lon="12.1731822"><ele>-3.0</ele><time>2026-04-18T12:05:51.986Z</time></trkpt><trkpt lat="44.7301117" lon="12.1730089"><ele>-3.0</ele><time>2026-04-18T12:05:53.986Z</time></trkpt><trkpt lat="44.7300359" lon="12.1728918"><ele>-1.4</ele><time>2026-04-18T12:05:55.986Z</time></trkpt><trkpt lat="44.7299596" lon="12.1729436"><ele>0.20000000000000018</ele><time>2026-04-18T12:05:57.986Z</time></trkpt><trkpt lat="44.7299595" lon="12.173134"><ele>1.8</ele><time>2026-04-18T12:05:59.986Z</time></trkpt><trkpt lat="44.7299893" lon="12.1732573"><ele>3.4</ele><time>2026-04-18T12:06:00.986Z</time></trkpt><trkpt lat="44.7300135" lon="12.1733491"><ele>5.0</ele><time>2026-04-18T12:06:01.986Z</time></trkpt><trkpt lat="44.7300536" lon="12.1734258"><ele>5.0</ele><time>2026-04-18T12:06:02.986Z</time></trkpt><trkpt lat="44.7301079" lon="12.1735139"><ele>5.0</ele><time>2026-04-18T12:06:04.985Z</time></trkpt><trkpt lat="44.7301548" lon="12.173629"><ele>5.0</ele><time>2026-04-18T12:06:07.985Z</time></trkpt><trkpt lat="44.7301934" lon="12.1737312"><ele>5.0</ele><time>2026-04-18T12:06:09.986Z</time></trkpt><trkpt lat="44.7301946" lon="12.1738219"><ele>5.0</ele><time>2026-04-18T12:06:11.986Z</time></trkpt><trkpt lat="44.7300912" lon="12.1738742"><ele>5.0</ele><time>2026-04-18T12:06:13.987Z</time></trkpt><trkpt lat="44.7300114" lon="12.1739328"><ele>5.0</ele><time>2026-04-18T12:06:14.985Z</time></trkpt><trkpt lat="44.729949" lon="12.174014"><ele>5.0</ele><time>2026-04-18T12:06:15.986Z</time></trkpt><trkpt lat="44.7298914" lon="12.1740943"><ele>5.0</ele><time>2026-04-18T12:06:16.985Z</time></trkpt><trkpt lat="44.7298008" lon="12.1741632"><ele>5.0</ele><time>2026-04-18T12:06:18.986Z</time></trkpt><trkpt lat="44.7297301" lon="12.1741479"><ele>5.0</ele><time>2026-04-18T12:06:20.986Z</time></trkpt><trkpt lat="44.7297206" lon="12.174025"><ele>5.0</ele><time>2026-04-18T12:06:22.986Z</time></trkpt><trkpt lat="44.7297383" lon="12.1739359"><ele>5.0</ele><time>2026-04-18T12:06:23.986Z</time></trkpt><trkpt lat="44.7297627" lon="12.173841"><ele>5.0</ele><time>2026-04-18T12:06:24.985Z</time></trkpt><trkpt lat="44.7297813" lon="12.1737461"><ele>5.0</ele><time>2026-04-18T12:06:25.986Z</time></trkpt><trkpt lat="44.7298037" lon="12.1736422"><ele>5.0</ele><time>2026-04-18T12:06:26.986Z</time></trkpt><trkpt lat="44.7298251" lon="12.1735371"><ele>5.0</ele><time>2026-04-18T12:06:27.986Z</time></trkpt><trkpt lat="44.7298188" lon="12.1734124"><ele>5.0</ele><time>2026-04-18T12:06:29.985Z</time></trkpt><trkpt lat="44.7297545" lon="12.1734083"><ele>5.0</ele><time>2026-04-18T12:06:31.985Z</time></trkpt><trkpt lat="44.7297009" lon="12.1734766"><ele>5.0</ele><time>2026-04-18T12:06:33.986Z</time></trkpt><trkpt lat="44.7296564" lon="12.1735526"><ele>5.0</ele><time>2026-04-18T12:06:37.012Z</time></trkpt><trkpt lat="44.7295891" lon="12.1735615"><ele>5.0</ele><time>2026-04-18T12:06:40.984Z</time></trkpt><trkpt lat="44.7296414" lon="12.1736939"><ele>5.0</ele><time>2026-04-18T12:06:43.985Z</time></trkpt><trkpt lat="44.7296741" lon="12.1738316"><ele>5.0</ele><time>2026-04-18T12:06:45.984Z</time></trkpt><trkpt lat="44.7297254" lon="12.1739726"><ele>3.8333333333333335</ele><time>2026-04-18T12:06:47.985Z</time></trkpt><trkpt lat="44.7297595" lon="12.174113"><ele>2.666666666666667</ele><time>2026-04-18T12:06:49.985Z</time></trkpt><trkpt lat="44.7296985" lon="12.1741716"><ele>1.5</ele><time>2026-04-18T12:06:51.985Z</time></trkpt><trkpt lat="44.7295971" lon="12.1742039"><ele>0.3333333333333335</ele><time>2026-04-18T12:06:53.986Z</time></trkpt><trkpt lat="44.7295156" lon="12.1742313"><ele>-0.8333333333333331</ele><time>2026-04-18T12:06:55.985Z</time></trkpt><trkpt lat="44.7294658" lon="12.1742948"><ele>-2.0</ele><time>2026-04-18T12:06:57.985Z</time></trkpt><trkpt lat="44.7294028" lon="12.1742953"><ele>-2.0</ele><time>2026-04-18T12:07:00.985Z</time></trkpt><trkpt lat="44.7293987" lon="12.1741518"><ele>-2.0</ele><time>2026-04-18T12:07:02.984Z</time></trkpt><trkpt lat="44.7293765" lon="12.1740249"><ele>-2.0</ele><time>2026-04-18T12:07:04.984Z</time></trkpt><trkpt lat="44.7293202" lon="12.173894"><ele>-2.0</ele><time>2026-04-18T12:07:06.985Z</time></trkpt><trkpt lat="44.7292784" lon="12.1737602"><ele>-2.0</ele><time>2026-04-18T12:07:08.985Z</time></trkpt><trkpt lat="44.7292007" lon="12.1736054"><ele>-0.8</ele><time>2026-04-18T12:07:10.985Z</time></trkpt><trkpt lat="44.729145" lon="12.1734594"><ele>0.3999999999999999</ele><time>2026-04-18T12:07:11.985Z</time></trkpt><trkpt lat="44.7290938" lon="12.1733151"><ele>1.6000000000000003</ele><time>2026-04-18T12:07:12.985Z</time></trkpt><trkpt lat="44.729063" lon="12.1732107"><ele>2.8000000000000003</ele><time>2026-04-18T12:07:13.985Z</time></trkpt><trkpt lat="44.728992" lon="12.173116"><ele>4.0</ele><time>2026-04-18T12:07:15.985Z</time></trkpt><trkpt lat="44.7289221" lon="12.1731621"><ele>3.9999999999999996</ele><time>2026-04-18T12:07:17.985Z</time></trkpt><trkpt lat="44.7288535" lon="12.1732445"><ele>4.0</ele><time>2026-04-18T12:07:19.985Z</time></trkpt><trkpt lat="44.7288075" lon="12.1731258"><ele>4.0</ele><time>2026-04-18T12:07:22.984Z</time></trkpt><trkpt lat="44.7288256" lon="12.1730405"><ele>4.0</ele><time>2026-04-18T12:07:23.984Z</time></trkpt><trkpt lat="44.7288455" lon="12.1729365"><ele>3.9999999999999996</ele><time>2026-04-18T12:07:24.984Z</time></trkpt><trkpt lat="44.7287933" lon="12.17283"><ele>4.0</ele><time>2026-04-18T12:07:26.985Z</time></trkpt><trkpt lat="44.7287007" lon="12.1728486"><ele>4.166666666666666</ele><time>2026-04-18T12:07:28.985Z</time></trkpt><trkpt lat="44.7286336" lon="12.1728961"><ele>4.333333333333333</ele><time>2026-04-18T12:07:30.984Z</time></trkpt><trkpt lat="44.7285572" lon="12.1729332"><ele>4.5</ele><time>2026-04-18T12:07:33.986Z</time></trkpt><trkpt lat="44.7284768" lon="12.1729684"><ele>4.666666666666667</ele><time>2026-04-18T12:07:36.984Z</time></trkpt><trkpt lat="44.7283981" lon="12.1730105"><ele>4.833333333333334</ele><time>2026-04-18T12:07:39.985Z</time></trkpt><trkpt lat="44.7283503" lon="12.1729447"><ele>5.0</ele><time>2026-04-18T12:07:42.985Z</time></trkpt><trkpt lat="44.7284028" lon="12.1728779"><ele>5.0</ele><time>2026-04-18T12:07:44.984Z</time></trkpt><trkpt lat="44.728501" lon="12.1728026"><ele>5.0</ele><time>2026-04-18T12:07:46.985Z</time></trkpt><trkpt lat="44.7285732" lon="12.1727408"><ele>5.0</ele><time>2026-04-18T12:07:48.985Z</time></trkpt><trkpt lat="44.7286341" lon="12.1726559"><ele>5.0</ele><time>2026-04-18T12:07:50.985Z</time></trkpt><trkpt lat="44.7286337" lon="12.1725078"><ele>5.0</ele><time>2026-04-18T12:07:52.985Z</time></trkpt><trkpt lat="44.7286967" lon="12.1724633"><ele>5.0</ele><time>2026-04-18T12:07:54.985Z</time></trkpt><trkpt lat="44.7287787" lon="12.1724504"><ele>5.0</ele><time>2026-04-18T12:07:56.985Z</time></trkpt><trkpt lat="44.7287262" lon="12.1723639"><ele>5.0</ele><time>2026-04-18T12:07:59.985Z</time></trkpt><trkpt lat="44.7286298" lon="12.1723469"><ele>5.0</ele><time>2026-04-18T12:08:01.984Z</time></trkpt><trkpt lat="44.7286062" lon="12.1722227"><ele>5.0</ele><time>2026-04-18T12:08:03.985Z</time></trkpt><trkpt lat="44.728669" lon="12.1720825"><ele>5.0</ele><time>2026-04-18T12:08:05.985Z</time></trkpt><trkpt lat="44.7287171" lon="12.1719613"><ele>5.0</ele><time>2026-04-18T12:08:07.985Z</time></trkpt><trkpt lat="44.7287695" lon="12.1718178"><ele>5.0</ele><time>2026-04-18T12:08:09.985Z</time></trkpt><trkpt lat="44.7288121" lon="12.171709"><ele>5.0</ele><time>2026-04-18T12:08:11.985Z</time></trkpt><trkpt lat="44.7288686" lon="12.1715875"><ele>5.0</ele><time>2026-04-18T12:08:13.984Z</time></trkpt><trkpt lat="44.728921" lon="12.1715167"><ele>4.666666666666667</ele><time>2026-04-18T12:08:14.985Z</time></trkpt><trkpt lat="44.7290111" lon="12.1714054"><ele>4.333333333333334</ele><time>2026-04-18T12:08:16.985Z</time></trkpt><trkpt lat="44.7290672" lon="12.171341"><ele>4.0</ele><time>2026-04-18T12:08:17.986Z</time></trkpt><trkpt lat="44.7291159" lon="12.1712834"><ele>3.666666666666667</ele><time>2026-04-18T12:08:18.985Z</time></trkpt><trkpt lat="44.7291673" lon="12.1712184"><ele>3.3333333333333335</ele><time>2026-04-18T12:08:19.984Z</time></trkpt><trkpt lat="44.7292164" lon="12.1711534"><ele>3.0</ele><time>2026-04-18T12:08:20.985Z</time></trkpt><trkpt lat="44.7292329" lon="12.1710377"><ele>3.0</ele><time>2026-04-18T12:08:22.986Z</time></trkpt><trkpt lat="44.7291939" lon="12.1709184"><ele>3.0</ele><time>2026-04-18T12:08:24.984Z</time></trkpt><trkpt lat="44.7291584" lon="12.170841"><ele>3.0</ele><time>2026-04-18T12:08:25.985Z</time></trkpt><trkpt lat="44.7291116" lon="12.1707153"><ele>3.0</ele><time>2026-04-18T12:08:27.985Z</time></trkpt><trkpt lat="44.7290735" lon="12.1706172"><ele>-1.0</ele><time>2026-04-18T12:08:29.985Z</time></trkpt></trkseg></trk></gpx>